Home Latest Filings Latest Buys Latest Sells Institutions Derivatives Hot Buys Data Screener Email Alerts Insider Charts
PH - As of  11/18/19, 07:11:26 PM:   1158 Insider Transactions.

Sector: Industrial Goods    Industry: Industrial Equipment & Components
Prev Close:$113.25  Avg Vol(3m): 1,224,740  P/E: 21.00  EPS: 5.39

Email this page to a friend.    Institutional Transactions for PH

                Buy: Blue    Sell: Red
Non-meaningful transactions (gifts, grants, etc.) are automatically filtered out for quicker actions.
Buy(P) /
Sell(S)
P/S date Filed Date Company Symbol Insider Relationship Share Amt. Unit Price Total Proceeds Shares Owned Return(1m) Details
S 2019-11-07 2019-11-12 10:51:18.0 PARKER HANNIFIN CORP PH MAXWELL MARTIN C officer (VP - CTIO) 11,500 $200.67 $2,307,670.00 20,082 view
S 2019-11-07 2019-11-08 11:25:51.0 PARKER HANNIFIN CORP PH Leonti Joseph R officer (VP, General Counsel, Secretary) 302 $200.56 $60,570.00 17,409 view
S 2019-11-07 2019-11-08 11:25:51.0 PARKER HANNIFIN CORP PH Leonti Joseph R officer (VP, General Counsel, Secretary) 951 $200.56 $190,735.00 17,409 view
S 2019-11-07 2019-11-08 11:25:51.0 PARKER HANNIFIN CORP PH Leonti Joseph R officer (VP, General Counsel, Secretary) 975 $200.56 $195,549.00 17,409 view
S 2019-11-07 2019-11-08 11:24:42.0 PARKER HANNIFIN CORP PH Parmentier Jennifer A officer (VP & President- Motion Sys. Gr) 189 $200.03 $37,806.40 11,370 view
S 2019-11-04 2019-11-05 14:23:16.0 PARKER HANNIFIN CORP PH SCAMINACE JOSEPH director 1,182 $196.68 $232,480.00 1,500 view
S 2019-11-04 2019-11-05 14:23:16.0 PARKER HANNIFIN CORP PH SCAMINACE JOSEPH director 1,818 $197.89 $359,762.00 13,707 view
S 2019-11-01 2019-11-04 14:56:55.0 PARKER HANNIFIN CORP PH Ross Andrew D officer (VP, Pres-Fluid Connectors) 1,939 $193.82 $375,810.00 16,039 view
S 2019-11-01 2019-11-04 14:55:51.0 PARKER HANNIFIN CORP PH Hart Mark J officer (EVP - HR & External Affairs) 917 $190.31 $174,515.00 10,849 view
S 2019-11-01 2019-11-04 14:49:04.0 PARKER HANNIFIN CORP PH Leombruno Todd M. officer (VP & Controller) 270 $193.99 $52,378.70 2,718 view
S 2019-09-12 2019-09-13 15:19:04.0 PARKER HANNIFIN CORP PH Gentile Thomas C officer (VP-Global Supply Chain) 675 $183.50 $123,860.00 1,092 view
S 2019-09-12 2019-09-13 15:16:51.0 PARKER HANNIFIN CORP PH Hart Mark J officer (EVP - HR & External Affairs) 2,250 $183.35 $412,546.00 10,849 view
S 2019-09-12 2019-09-13 15:15:22.0 PARKER HANNIFIN CORP PH Bowman William R officer (VP & Pres -Instrumentation Grp) 830 $182.69 $151,631.00 2,412 view
S 2019-09-12 2019-09-13 15:13:20.0 PARKER HANNIFIN CORP PH Parmentier Jennifer A officer (VP & President- Motion Sys. Gr) 100 $182.88 $18,287.50 11,370 view
S 2019-09-12 2019-09-13 15:13:20.0 PARKER HANNIFIN CORP PH Parmentier Jennifer A officer (VP & President- Motion Sys. Gr) 4,054 $182.85 $741,271.00 11,470 view
S 2019-09-11 2019-09-12 12:37:21.0 PARKER HANNIFIN CORP PH BANKS LEE C officer (President & COO) 18,989 $180.95 $3,436,100.00 92,617 view
S 2019-09-11 2019-09-12 12:25:35.0 PARKER HANNIFIN CORP PH BANKS LEE C officer (President & COO) 10,817 $181.94 $1,968,070.00 111,606 view
S 2019-09-10 2019-09-11 15:50:56.0 PARKER HANNIFIN CORP PH Weeks Andrew M officer (VP, Pres-Engineered Materials) 702 $180.63 $126,806.00 10,607 view
S 2019-09-10 2019-09-11 15:50:56.0 PARKER HANNIFIN CORP PH Weeks Andrew M officer (VP, Pres-Engineered Materials) 1,030 $180.63 $186,054.00 10,607 view
S 2019-09-10 2019-09-11 15:46:56.0 PARKER HANNIFIN CORP PH Williams Thomas L director officer (Chairman and CEO) 32,109 $180.68 $5,801,450.00 130,176 view
P 2019-08-26 2019-08-27 11:13:40.0 PARKER HANNIFIN CORP PH Harty Linda S director 300 $158.41 $47,523.00 13,656 view
P 2019-08-26 2019-08-27 11:13:40.0 PARKER HANNIFIN CORP PH Harty Linda S director 100 $158.40 $15,840.00 13,343 view
P 2019-08-26 2019-08-27 11:13:40.0 PARKER HANNIFIN CORP PH Harty Linda S director 2,600 $158.39 $411,811.00 13,243 view
S 2019-05-30 2019-05-31 11:31:38.0 PARKER HANNIFIN CORP PH Malone Robert W officer (VP, President - Filtration Grp) 336 $156.76 $52,672.00 24,260 view
S 2019-03-14 2019-03-14 14:04:02.0 PARKER HANNIFIN CORP PH Sherrard Roger S officer (VP and Pres - Aerospace Group) 2,040 $171.80 $350,472.00 57,770 view
S 2019-02-28 2019-03-04 15:12:49.0 PARKER HANNIFIN CORP PH Weeks Andrew M officer (VP & Pres-Engineered Materials) 4,520 $176.70 $798,684.00 4,910 view
S 2019-02-25 2019-02-26 11:38:48.0 PARKER HANNIFIN CORP PH Leombruno Todd M. officer (VP & Controller) 784 $177.55 $139,198.00 1,355 view
S 2019-02-15 2019-02-19 10:19:29.0 PARKER HANNIFIN CORP PH Malone Robert W officer (VP, President - Filtration Grp) 1,300 $173.34 $225,342.00 19,526 view
S 2019-02-13 2019-02-14 14:29:19.0 PARKER HANNIFIN CORP PH Bowman William R officer (VP Pres - Instrumentation Grp) 875 $171.82 $150,341.00 450 view
S 2019-02-13 2019-02-14 14:28:11.0 PARKER HANNIFIN CORP PH Gentile Thomas C officer (VP-Global Supply Chain) 319 $171.81 $54,806.10 0 view
S 2019-02-07 2019-02-08 14:20:13.0 PARKER HANNIFIN CORP PH OBOURN CANDY M director 926 $162.18 $150,178.00 10,248 view
P 2018-12-07 2019-01-16 10:19:03.0 PARKER HANNIFIN CORP PH BOHN ROBERT G director 43 $163.08 $7,012.28 11,114 view
P 2018-09-14 2019-01-16 10:19:03.0 PARKER HANNIFIN CORP PH BOHN ROBERT G director 37 $186.29 $6,892.58 11,071 view
P 2018-06-01 2019-01-16 10:19:03.0 PARKER HANNIFIN CORP PH BOHN ROBERT G director 40 $173.10 $6,923.80 11,034 view
S 2018-09-05 2018-09-06 14:22:16.0 PARKER HANNIFIN CORP PH Leonti Joseph R officer (VP, General Counsel, Secretary) 778 $176.56 $137,363.00 11,624 view
S 2018-09-05 2018-09-06 14:22:16.0 PARKER HANNIFIN CORP PH Leonti Joseph R officer (VP, General Counsel, Secretary) 827 $176.56 $146,014.00 11,624 view
S 2018-08-29 2018-08-30 10:13:49.0 PARKER HANNIFIN CORP PH Bowman William R officer (VP Pres - Instrumentation Grp) 2,400 $175.36 $420,864.00 1,325 view
S 2017-08-25 2018-07-20 14:04:03.0 PARKER HANNIFIN CORP PH BANKS LEE C officer (President & COO) 1,718 $157.26 $270,173.00 61,793 view
S 2018-06-08 2018-06-11 11:46:53.0 PARKER HANNIFIN CORP PH Suever Catherine A officer (Exec VP Finance & Admin & CFO) 2,148 $175.13 $376,184.00 18,953 view
S 2018-05-21 2018-05-21 15:50:11.0 PARKER HANNIFIN CORP PH Keller Kurt A officer (VP and Pres-Asia Pacific Group) 3,167 $182.04 $576,518.00 18,584 view
S 2018-05-21 2018-05-21 15:50:11.0 PARKER HANNIFIN CORP PH Keller Kurt A officer (VP and Pres-Asia Pacific Group) 3,838 $182.04 $698,666.00 18,584 view
S 2018-05-16 2018-05-17 16:20:58.0 PARKER HANNIFIN CORP PH Gentile Thomas C officer (VP-Global Supply Chain) 570 $176.73 $100,737.00 319 view
S 2018-05-07 2018-05-08 14:46:50.0 PARKER HANNIFIN CORP PH Weeks Andrew M officer (VP, Pres-Motion Systems Grp) 2,600 $169.36 $440,346.00 6,160 view
S 2018-04-30 2018-05-02 14:34:52.0 PARKER HANNIFIN CORP PH Malone Robert W officer (VP, President - Filtration Grp) 430 $165.12 $71,001.60 14,816 view
S 2018-04-30 2018-04-30 13:41:32.0 PARKER HANNIFIN CORP PH OBOURN CANDY M director 1,825 $164.93 $300,997.00 10,260 view
S 2018-03-13 2018-03-14 12:19:02.0 PARKER HANNIFIN CORP PH Sherrard Roger S officer (VP and Pres - Aerospace Group) 2,109 $182.12 $384,091.00 47,015 view
S 2018-02-26 2018-02-27 14:57:10.0 PARKER HANNIFIN CORP PH SCAMINACE JOSEPH director 1,149 $184.24 $211,689.00 14,189 view
S 2018-02-15 2018-02-16 12:25:24.0 PARKER HANNIFIN CORP PH SCAMINACE JOSEPH director 1,000 $184.97 $184,971.00 2,182 view
S 2017-12-08 2017-12-11 15:04:02.0 PARKER HANNIFIN CORP PH Ross Andrew D officer (VP, Pres-Fluid Connectors) 2,056 $192.14 $395,048.00 5,207 view
S 2017-11-07 2017-11-29 12:32:02.0 PARKER HANNIFIN CORP PH Leombruno Todd M. officer (VP & Controller) 562 $185.21 $104,090.00 580 view
S 2017-11-17 2017-11-27 14:56:50.0 PARKER HANNIFIN CORP PH Chung Yoon Michael officer (VP - E Business, IoT & Svcs.) 3,950 $182.15 $719,476.00 16,465 view
S 2017-11-20 2017-11-21 11:57:30.0 PARKER HANNIFIN CORP PH Harty Linda S director 3,491 $183.30 $639,886.00 9,727 view
S 2017-11-17 2017-11-20 11:26:42.0 PARKER HANNIFIN CORP PH ELINE WILLIAM G officer (VP- Chief Information Officer) 1,844 $182.03 $335,664.00 12,313 view
S 2017-11-17 2017-11-20 11:10:23.0 PARKER HANNIFIN CORP PH BOND ROBERT W officer (VP- eBus, IoT and Services) 5,517 $181.72 $1,002,530.00 36,729 view
S 2017-11-17 2017-11-20 11:00:29.0 PARKER HANNIFIN CORP PH Chung Yoon Michael officer (VP - E Business, IoT & Svcs.) 2,485 $182.00 $452,275.00 20,415 view
S 2017-11-15 2017-11-16 11:22:49.0 PARKER HANNIFIN CORP PH Leonti Joseph R officer (VP, General Counsel, Secretary) 767 $179.07 $137,347.00 6,332 view
S 2017-11-15 2017-11-16 11:22:49.0 PARKER HANNIFIN CORP PH Leonti Joseph R officer (VP, General Counsel, Secretary) 1,616 $179.07 $289,378.00 6,332 view
S 2017-11-15 2017-11-16 11:22:49.0 PARKER HANNIFIN CORP PH Leonti Joseph R officer (VP, General Counsel, Secretary) 2,526 $179.07 $452,333.00 6,332 view
S 2017-11-15 2017-11-16 11:22:49.0 PARKER HANNIFIN CORP PH Leonti Joseph R officer (VP, General Counsel, Secretary) 370 $179.07 $66,256.20 6,332 view
S 2017-11-10 2017-11-13 10:58:33.0 PARKER HANNIFIN CORP PH Gentile Thomas C officer (VP-Global Supply Chain) 326 $181.89 $59,294.90 0 view
S 2017-08-31 2017-11-06 15:08:35.0 PARKER HANNIFIN CORP PH Hart Mark J officer (EVP - HR & External Affairs) 600 $160.72 $96,429.60 3,521 view
S 2017-11-03 2017-11-06 12:27:16.0 PARKER HANNIFIN CORP PH BANKS LEE C officer (President & COO) 5,286 $186.38 $985,205.00 91,523 view
S 2017-11-03 2017-11-03 14:49:03.0 PARKER HANNIFIN CORP PH Malone Robert W officer (VP, President - Filtration Grp) 540 $186.37 $100,640.00 11,009 view
S 2017-09-12 2017-09-14 10:44:53.0 PARKER HANNIFIN CORP PH Keller Kurt A officer (VP and Pres-Asia Pacific Group) 3,030 $165.71 $502,101.00 14,740 view
S 2017-09-12 2017-09-13 10:28:09.0 PARKER HANNIFIN CORP PH MAXWELL MARTIN C officer (VP - CTIO) 2,640 $165.67 $437,379.00 21,968 view
S 2017-09-08 2017-09-08 15:45:29.0 PARKER HANNIFIN CORP PH OBOURN CANDY M director 1,241 $161.46 $200,374.00 11,189 view
S 2017-09-06 2017-09-06 15:11:29.0 PARKER HANNIFIN CORP PH Leonti Joseph R officer (VP, General Counsel, Secretary) 149 $160.70 $23,944.00 6,332 view
S 2017-09-06 2017-09-06 15:11:29.0 PARKER HANNIFIN CORP PH Leonti Joseph R officer (VP, General Counsel, Secretary) 259 $160.70 $41,620.80 6,481 view
S 2017-08-31 2017-09-01 12:25:02.0 PARKER HANNIFIN CORP PH Hart Mark J officer (EVP - HR & External Affairs) 600 $160.72 $96,429.60 35,521 view
S 2017-08-28 2017-08-29 17:21:33.0 PARKER HANNIFIN CORP PH SCAMINACE JOSEPH director 500 $158.35 $79,173.20 2,182 view
S 2017-06-02 2017-06-06 09:37:43.0 PARKER HANNIFIN CORP PH Dedinsky John G Jr officer (VP-Gbl Supply Chain/Procure.) 2,530 $160.98 $407,279.00 21,753 view
S 2017-05-25 2017-05-30 11:08:24.0 PARKER HANNIFIN CORP PH Ross Andrew D officer (VP, Pres-Fluid Connectors) 3,355 $159.97 $536,699.00 7,263 N/A view
S 2017-05-25 2017-05-30 11:07:35.0 PARKER HANNIFIN CORP PH MAXWELL MARTIN C officer (VP - CTIO) 2,850 $160.08 $456,228.00 21,968 N/A view
S 2017-05-11 2017-05-15 14:05:11.0 PARKER HANNIFIN CORP PH Bowman William R officer (VP Pres - Instrumentation Grp) 2,900 $158.92 $460,868.00 1,172 N/A view
S 2017-05-10 2017-05-12 12:17:43.0 PARKER HANNIFIN CORP PH Malone Robert W officer (VP, President - Filtration Grp) 793 $159.36 $126,372.00 11,549 N/A view
S 2017-05-09 2017-05-12 12:16:59.0 PARKER HANNIFIN CORP PH ELINE WILLIAM G officer (VP- Chief Information Officer) 1,559 $159.08 $248,006.00 12,313 N/A view
S 2017-04-28 2017-05-01 15:30:38.0 PARKER HANNIFIN CORP PH BOND ROBERT W officer (VP- eBus, IoT and Services) 4,111 $162.01 $666,031.00 36,729 N/A view
S 2017-04-28 2017-05-01 15:30:38.0 PARKER HANNIFIN CORP PH BOND ROBERT W officer (VP- eBus, IoT and Services) 8,379 $161.67 $1,354,620.00 40,840 N/A view
S 2017-03-30 2017-04-03 17:17:20.0 PARKER HANNIFIN CORP PH Williams Thomas L director officer (Chairman and CEO) 18,435 $160.00 $2,949,600.00 69,952 N/A view
P 2017-03-10 2017-03-13 17:41:07.0 PARKER HANNIFIN CORP PH MULLER KLAUS PETER director 1,000 $157.75 $157,750.00 35,112 N/A view
S 2017-03-02 2017-03-06 14:44:27.0 PARKER HANNIFIN CORP PH BANKS LEE C officer (President & COO) 9,593 $157.25 $1,508,490.00 52,357 N/A view
S 2017-03-02 2017-03-06 14:43:59.0 PARKER HANNIFIN CORP PH MAXWELL MARTIN C officer (VP - CTIO) 3,017 $158.38 $477,823.00 21,968 N/A view
S 2017-03-02 2017-03-06 14:17:06.0 PARKER HANNIFIN CORP PH Chung Yoon Michael officer (VP and Pres - Automation Group) 657 $158.40 $104,066.00 17,559 N/A view
S 2017-03-01 2017-03-02 14:51:45.0 PARKER HANNIFIN CORP PH ELINE WILLIAM G officer (VP- Chief Information Officer) 5,586 $157.71 $880,962.00 6,003 N/A view
S 2016-12-12 2016-12-13 14:30:55.0 PARKER HANNIFIN CORP PH SCHMITT WOLFGANG R director 6,335 $141.19 $894,439.00 22,130 N/A view
S 2016-12-08 2016-12-12 15:32:49.0 PARKER HANNIFIN CORP PH OBOURN CANDY M director 1,200 $142.94 $171,528.00 12,420 N/A view
S 2016-12-08 2016-12-12 15:32:49.0 PARKER HANNIFIN CORP PH OBOURN CANDY M director 555 $142.87 $79,292.90 13,620 N/A view
S 2016-12-02 2016-12-06 14:22:59.0 PARKER HANNIFIN CORP PH ELINE WILLIAM G officer (VP- Chief Information Officer) 7,000 $141.94 $993,580.00 9,203 N/A view
S 2016-12-02 2016-12-06 14:22:59.0 PARKER HANNIFIN CORP PH ELINE WILLIAM G officer (VP- Chief Information Officer) 4,151 $144.17 $598,437.00 16,203 N/A view
S 2016-12-05 2016-12-06 14:21:48.0 PARKER HANNIFIN CORP PH Marten Jon P. officer (EVP - Finance Admin/CFO) 6,337 $141.75 $898,255.00 23,053 N/A view
S 2016-12-02 2016-12-06 12:18:41.0 PARKER HANNIFIN CORP PH BANKS LEE C officer (President & COO) 20,900 $142.36 $2,975,320.00 52,357 N/A view
S 2016-12-01 2016-12-02 11:37:40.0 PARKER HANNIFIN CORP PH Dedinsky John G Jr officer (VP-Gbl Supply Chain/Procure.) 1,472 $143.63 $211,429.00 21,753 N/A view
S 2016-11-10 2016-11-14 15:51:27.0 PARKER HANNIFIN CORP PH BOND ROBERT W officer (VP- eBus, IoT and Services) 2,200 $136.92 $301,224.00 36,729 N/A view
S 2016-11-10 2016-11-14 15:48:08.0 PARKER HANNIFIN CORP PH Ross Andrew D officer (VP, Pres-Fluid Connectors) 300 $135.76 $40,728.00 7,263 N/A view
S 2016-11-10 2016-11-14 15:48:08.0 PARKER HANNIFIN CORP PH Ross Andrew D officer (VP, Pres-Fluid Connectors) 200 $135.76 $27,152.80 7,563 N/A view
S 2016-11-10 2016-11-14 15:48:08.0 PARKER HANNIFIN CORP PH Ross Andrew D officer (VP, Pres-Fluid Connectors) 282 $135.79 $38,292.20 7,763 N/A view
S 2016-11-10 2016-11-14 15:46:00.0 PARKER HANNIFIN CORP PH Sherrard Roger S officer (VP and Pres - Aerospace Group) 5,939 $136.21 $808,963.00 42,964 N/A view
S 2016-11-10 2016-11-14 15:32:38.0 PARKER HANNIFIN CORP PH Keller Kurt A officer (VP and Pres-Asia Pacific Group) 5,126 $136.31 $698,705.00 15,026 N/A view
S 2016-11-10 2016-11-14 15:32:38.0 PARKER HANNIFIN CORP PH Keller Kurt A officer (VP and Pres-Asia Pacific Group) 404 $136.29 $55,061.20 20,152 N/A view
S 2016-11-10 2016-11-14 15:26:54.0 PARKER HANNIFIN CORP PH MAXWELL MARTIN C officer (VP - CTIO) 9,800 $136.22 $1,334,960.00 21,968 N/A view
S 2016-11-10 2016-11-14 15:26:54.0 PARKER HANNIFIN CORP PH MAXWELL MARTIN C officer (VP - CTIO) 1,711 $136.14 $232,930.00 31,768 N/A view
S 2016-11-10 2016-11-14 15:19:14.0 PARKER HANNIFIN CORP PH Dedinsky John G Jr officer (VP-Gbl Supply Chain/Procure.) 348 $135.91 $47,296.70 21,753 N/A view
S 2016-11-10 2016-11-14 15:15:54.0 PARKER HANNIFIN CORP PH Chung Yoon Michael officer (VP and Pres - Automation Group) 4,428 $136.66 $605,130.00 17,559 N/A view
S 2016-11-09 2016-11-14 11:04:52.0 PARKER HANNIFIN CORP PH Serbin Daniel S officer (Vice President) 7,600 $132.15 $1,004,310.00 26,444 N/A view
S 2016-11-09 2016-11-14 11:04:52.0 PARKER HANNIFIN CORP PH Serbin Daniel S officer (Vice President) 5,326 $131.83 $702,127.00 34,044 N/A view
S 2016-09-08 2016-09-08 14:50:20.0 PARKER HANNIFIN CORP PH BOND ROBERT W officer (VP- eBus, IoT and Services) 14,043 $124.51 $1,748,530.00 33,288 N/A view
S 2016-08-17 2016-08-18 16:31:26.0 PARKER HANNIFIN CORP PH BANKS LEE C officer (President & COO) 10,953 $124.28 $1,361,230.00 58,187 N/A view
S 2016-08-12 2016-08-15 19:12:48.0 PARKER HANNIFIN CORP PH Suever Catherine A officer (Vice President and Controller) 919 $123.28 $113,298.00 9,749 N/A view
S 2016-08-12 2016-08-15 19:12:48.0 PARKER HANNIFIN CORP PH Suever Catherine A officer (Vice President and Controller) 100 $123.30 $12,330.00 10,668 N/A view
S 2016-08-08 2016-08-08 17:31:41.0 PARKER HANNIFIN CORP PH Keller Kurt A officer (VP and Pres-Asia Pacific Group) 757 $122.12 $92,442.80 20,566 N/A view
S 2016-08-05 2016-08-08 17:22:12.0 PARKER HANNIFIN CORP PH Greco John R officer (VP, Pres - Instrumentation Grp) 223 $121.01 $26,984.70 12,476 N/A view
S 2016-08-05 2016-08-08 17:20:25.0 PARKER HANNIFIN CORP PH MAXWELL MARTIN C officer (VP - CTIO) 893 $120.62 $107,712.00 31,768 N/A view
S 2016-06-08 2016-06-09 14:29:03.0 PARKER HANNIFIN CORP PH Dedinsky John G Jr officer (VP-Gbl Supply Chain/Procuremnt) 100 $116.96 $11,695.50 22,253 N/A view
S 2016-06-08 2016-06-09 14:29:03.0 PARKER HANNIFIN CORP PH Dedinsky John G Jr officer (VP-Gbl Supply Chain/Procuremnt) 1,400 $116.96 $163,740.00 22,353 N/A view
S 2016-06-06 2016-06-07 16:44:16.0 PARKER HANNIFIN CORP PH BOND ROBERT W officer (VP- eBus, IoT and Services) 9,756 $116.66 $1,138,110.00 47,331 N/A view
S 2016-06-06 2016-06-07 16:44:16.0 PARKER HANNIFIN CORP PH Marten Jon P. officer (EVP - Finance Admin/CFO) 5,172 $116.00 $599,980.00 27,183 N/A view
S 2016-05-10 2016-05-10 16:28:43.0 PARKER HANNIFIN CORP PH Dedinsky John G Jr officer (VP-Gbl Supply Chain/Procuremnt) 1,407 $113.44 $159,607.00 23,753 N/A view
S 2016-05-10 2016-05-10 16:28:43.0 PARKER HANNIFIN CORP PH Dedinsky John G Jr officer (VP-Gbl Supply Chain/Procuremnt) 100 $113.41 $11,341.00 25,160 N/A view
S 2016-04-28 2016-05-02 12:29:04.0 PARKER HANNIFIN CORP PH Greco John R officer (VP, Pres - Instrumentation Grp) 1,846 $116.39 $214,852.00 12,476 N/A view
S 2016-04-28 2016-05-02 12:29:04.0 PARKER HANNIFIN CORP PH Greco John R officer (VP, Pres - Instrumentation Grp) 817 $116.42 $95,114.20 14,322 N/A view
S 2016-04-28 2016-05-02 12:29:04.0 PARKER HANNIFIN CORP PH Greco John R officer (VP, Pres - Instrumentation Grp) 1,014 $116.44 $118,073.00 15,139 N/A view
S 2016-04-28 2016-05-02 12:29:04.0 PARKER HANNIFIN CORP PH Greco John R officer (VP, Pres - Instrumentation Grp) 623 $116.46 $72,553.00 16,153 N/A view
S 2016-04-28 2016-05-02 12:18:10.0 PARKER HANNIFIN CORP PH ELINE WILLIAM G officer (VP- Chief Information Officer) 652 $116.47 $75,940.50 15,794 N/A view
S 2016-04-28 2016-05-02 12:18:10.0 PARKER HANNIFIN CORP PH ELINE WILLIAM G officer (VP- Chief Information Officer) 1,612 $116.52 $187,835.00 16,446 N/A view
S 2016-04-28 2016-05-02 12:18:10.0 PARKER HANNIFIN CORP PH ELINE WILLIAM G officer (VP- Chief Information Officer) 2,036 $116.51 $237,215.00 18,058 N/A view
S 2016-04-28 2016-04-29 13:34:37.0 PARKER HANNIFIN CORP PH WASHKEWICZ DONALD E director 341 $117.01 $39,899.00 23,018 N/A view
S 2016-04-27 2016-04-29 13:34:37.0 PARKER HANNIFIN CORP PH WASHKEWICZ DONALD E director 17,892 $117.01 $2,093,470.00 23,359 N/A view
S 2016-02-04 2016-02-08 14:09:30.0 PARKER HANNIFIN CORP PH OBOURN CANDY M director 300 $100.58 $30,175.50 13,022 N/A view
S 2016-02-04 2016-02-08 14:09:30.0 PARKER HANNIFIN CORP PH OBOURN CANDY M director 2,281 $100.55 $229,352.00 13,322 N/A view
S 2015-10-29 2015-11-02 14:29:04.0 PARKER HANNIFIN CORP PH Weeks Andrew M officer (VP, Pres-Hydraulics Grp) 1,364 $103.66 $141,398.00 4,500 N/A view
S 2015-06-10 2015-06-11 14:18:30.0 PARKER HANNIFIN CORP PH Dedinsky John G Jr officer (VP-Gbl Supply Chain/Procuremnt) 2,952 $119.93 $354,024.00 22,439 N/A view
S 2015-06-10 2015-06-11 14:14:11.0 PARKER HANNIFIN CORP PH BOND ROBERT W officer (VP/Pres-Fluid Connectors Group) 300 $120.00 $36,000.60 53,617 N/A view
S 2015-06-10 2015-06-11 14:14:11.0 PARKER HANNIFIN CORP PH BOND ROBERT W officer (VP/Pres-Fluid Connectors Group) 2,700 $120.00 $324,003.00 53,917 N/A view
S 2015-05-21 2015-05-26 15:28:50.0 PARKER HANNIFIN CORP PH ELINE WILLIAM G officer (VP- Chief Information Officer) 2,800 $124.39 $348,284.00 18,793 N/A view
S 2015-05-21 2015-05-26 15:28:50.0 PARKER HANNIFIN CORP PH ELINE WILLIAM G officer (VP- Chief Information Officer) 1,414 $124.64 $176,245.00 21,593 N/A view
S 2015-05-21 2015-05-26 15:22:30.0 PARKER HANNIFIN CORP PH BANKS LEE C officer (EVP - Operating Officer) 15,214 $124.37 $1,892,210.00 49,901 N/A view
S 2015-05-21 2015-05-26 15:22:30.0 PARKER HANNIFIN CORP PH BANKS LEE C officer (EVP - Operating Officer) 1,399 $124.30 $173,896.00 65,115 N/A view
S 2015-05-21 2015-05-26 15:09:39.0 PARKER HANNIFIN CORP PH Greco John R officer (VP, Pres - Instrumentation Grp) 3,152 $124.34 $391,932.00 14,977 N/A view
S 2015-05-21 2015-05-26 15:07:38.0 PARKER HANNIFIN CORP PH Sherrard Roger S officer (VP and Pres - Aerospace Group) 1,182 $125.15 $147,927.00 39,665 N/A view
S 2015-05-13 2015-05-14 13:41:39.0 PARKER HANNIFIN CORP PH Cullman Jeffery A officer (VP, President - Hydraulics Grp) 3,093 $123.12 $380,826.00 0 N/A view
S 2015-05-05 2015-05-07 16:14:19.0 PARKER HANNIFIN CORP PH Serbin Daniel S officer (EVP - HR & External Affairs) 952 $122.54 $116,662.00 32,091 N/A view
S 2015-03-03 2015-03-05 14:43:58.0 PARKER HANNIFIN CORP PH Cullman Jeffery A officer (VP, President - Hydraulics Grp) 5,317 $123.36 $655,900.00 0 4.34% view
P 2015-02-04 2015-02-05 11:19:36.0 PARKER HANNIFIN CORP PH MULLER KLAUS PETER director 2,000 $120.75 $241,500.00 32,134 0.60% view
S 2014-12-03 2014-12-04 16:43:12.0 PARKER HANNIFIN CORP PH Suever Catherine A officer (Vice President and Controller) 1,403 $131.02 $183,822.00 7,124 1.42% view
S 2014-12-02 2014-12-04 16:42:04.0 PARKER HANNIFIN CORP PH Marten Jon P. officer (EVP - Finance Admin/CFO) 7,549 $128.35 $968,916.00 19,422 -0.63% view
S 2014-11-28 2014-12-01 16:57:36.0 PARKER HANNIFIN CORP PH Keller Kurt A officer (VP and Pres-Asia Pacific Group) 50 $128.75 $6,437.50 261 -1.58% view
S 2014-11-28 2014-12-01 16:57:36.0 PARKER HANNIFIN CORP PH Keller Kurt A officer (VP and Pres-Asia Pacific Group) 114 $128.81 $14,684.70 311 -1.53% view
S 2014-11-26 2014-12-01 16:57:36.0 PARKER HANNIFIN CORP PH Keller Kurt A officer (VP and Pres-Asia Pacific Group) 310 $131.69 $40,824.80 311 0.69% view
S 2014-11-26 2014-12-01 16:57:36.0 PARKER HANNIFIN CORP PH Keller Kurt A officer (VP and Pres-Asia Pacific Group) 637 $131.61 $83,836.20 621 0.62% view
S 2014-11-26 2014-12-01 16:15:12.0 PARKER HANNIFIN CORP PH Chung Yoon Michael officer (VP and Pres - Automation Group) 3,888 $132.28 $514,305.00 13,379 1.13% view
S 2014-11-26 2014-12-01 14:40:29.0 PARKER HANNIFIN CORP PH Serbin Daniel S officer (EVP - Human Resources) 7,561 $131.98 $997,931.00 28,864 0.90% view
S 2014-11-25 2014-11-25 18:25:10.0 PARKER HANNIFIN CORP PH Keller Kurt A officer (VP and Pres-Asia Pacific Group) 3,894 $132.35 $515,355.00 14,793 1.13% view
S 2014-11-25 2014-11-25 17:36:50.0 PARKER HANNIFIN CORP PH MAXWELL MARTIN C officer (VP - CTIO) 3,166 $132.87 $420,663.00 26,956 1.52% view
S 2014-11-25 2014-11-25 17:14:04.0 PARKER HANNIFIN CORP PH BOND ROBERT W officer (VP/Pres-Fluid Connectors Group) 900 $133.27 $119,945.00 52,738 1.82% view
S 2014-11-25 2014-11-25 17:14:04.0 PARKER HANNIFIN CORP PH BOND ROBERT W officer (VP/Pres-Fluid Connectors Group) 2,292 $133.24 $305,393.00 53,638 1.80% view
S 2014-11-25 2014-11-25 17:10:24.0 PARKER HANNIFIN CORP PH BANKS LEE C officer (EVP - Operating Officer) 10,092 $133.06 $1,342,810.00 57,602 1.66% view
S 2014-11-25 2014-11-25 16:07:58.0 PARKER HANNIFIN CORP PH MAXWELL MARTIN C officer (VP - CTIO) 7,583 $133.14 $1,009,630.00 26,956 1.72% view
S 2014-11-24 2014-11-25 16:05:49.0 PARKER HANNIFIN CORP PH Greco John R officer (VP, Pres - Instrumentation Grp) 4,730 $132.51 $626,760.00 16,234 1.25% view
S 2014-11-18 2014-11-20 16:34:08.0 PARKER HANNIFIN CORP PH Ross Andrew D officer (VP, Pres-Engineered Materials) 394 $130.73 $51,509.20 3,097 3.11% view
S 2014-11-10 2014-11-12 09:59:05.0 PARKER HANNIFIN CORP PH OBOURN CANDY M director 2,725 $128.56 $350,315.00 14,436 2.59% view
S 2014-11-07 2014-11-10 15:01:48.0 PARKER HANNIFIN CORP PH BANKS LEE C officer (EVP - Operating Officer) 1,926 $127.74 $246,024.00 67,694 -1.73% view
S 2014-11-04 2014-11-06 11:58:47.0 PARKER HANNIFIN CORP PH Popoff Peter officer (VP, President-Filtration Group) 3,453 $126.03 $435,176.00 3,370 -2.97% view
S 2014-10-31 2014-11-04 14:44:07.0 PARKER HANNIFIN CORP PH Ross Andrew D officer (VP, Pres-Engineered Materials) 1,000 $126.52 $126,521.00 3,097 -1.98% view
S 2014-10-31 2014-11-04 14:44:07.0 PARKER HANNIFIN CORP PH Ross Andrew D officer (VP, Pres-Engineered Materials) 562 $126.56 $71,127.80 4,097 -1.95% view
S 2014-10-29 2014-10-30 12:04:51.0 PARKER HANNIFIN CORP PH BOND ROBERT W officer (VP/Pres-Fluid Connectors Group) 1,724 $122.36 $210,950.00 52,738 -5.45% view
S 2014-08-19 2014-08-19 15:59:04.0 PARKER HANNIFIN CORP PH Cullman Jeffery A officer (VP, President - Hydraulics Grp) 5,468 $115.17 $629,766.00 0 -1.27% view
S 2012-12-13 2014-07-31 16:59:57.0 PARKER HANNIFIN CORP PH Suever Catherine A officer (Vice President and Controller) 777 $82.86 $64,380.70 3,635 -7.46% view
S 2014-06-10 2014-06-12 15:29:06.0 PARKER HANNIFIN CORP PH PIRAINO THOMAS A officer 10% owner (VP, General Counsel, Secretary 3,840 $128.71 $494,235.00 7,715 4.61% view
S 2014-06-10 2014-06-12 15:27:27.0 PARKER HANNIFIN CORP PH HUGGINS PAMELA J officer (Vice President and Treasurer) 1,464 $128.91 $188,726.00 19,280 4.76% view
S 2014-06-10 2014-06-12 15:27:27.0 PARKER HANNIFIN CORP PH HUGGINS PAMELA J officer (Vice President and Treasurer) 400 $128.93 $51,573.60 20,744 4.77% view
S 2014-06-10 2014-06-12 15:26:03.0 PARKER HANNIFIN CORP PH ELINE WILLIAM G officer (VP- Chief Information Officer) 3,860 $128.98 $497,847.00 21,957 4.80% view
S 2014-06-06 2014-06-09 15:13:57.0 PARKER HANNIFIN CORP PH Dedinsky John G Jr officer (VP-Gbl Supply Chain/Procuremnt) 2,170 $127.91 $277,556.00 26,032 0.42% view
S 2014-05-27 2014-05-29 16:24:07.0 PARKER HANNIFIN CORP PH Serbin Daniel S officer (EVP - Human Resources) 4,645 $124.58 $578,656.00 36,425 -0.85% view
S 2014-05-27 2014-05-29 16:24:07.0 PARKER HANNIFIN CORP PH Serbin Daniel S officer (EVP - Human Resources) 128 $125.56 $16,071.70 41,070 -0.06% view
S 2014-05-27 2014-05-29 16:24:07.0 PARKER HANNIFIN CORP PH Serbin Daniel S officer (EVP - Human Resources) 700 $125.59 $87,913.00 41,198 -0.03% view
S 2014-05-28 2014-05-29 16:17:45.0 PARKER HANNIFIN CORP PH Sherrard Roger S officer (VP and Pres - Aerospace Group) 13,300 $124.62 $1,657,470.00 39,104 -0.81% view
S 2014-05-28 2014-05-29 16:17:45.0 PARKER HANNIFIN CORP PH Sherrard Roger S officer (VP and Pres - Aerospace Group) 1,204 $124.36 $149,731.00 52,404 -1.02% view
S 2014-05-22 2014-05-22 16:04:09.0 PARKER HANNIFIN CORP PH Ross Andrew D officer (VP, Pres-Engineered Materials) 1,705 $123.37 $210,344.00 3,097 -3.53% view
S 2014-05-21 2014-05-22 16:02:26.0 PARKER HANNIFIN CORP PH Cullman Jeffery A officer (VP, President - Hydraulics Grp) 5,719 $122.43 $700,177.00 10,290 -4.32% view
S 2014-05-13 2014-05-15 15:22:06.0 PARKER HANNIFIN CORP PH PIRAINO THOMAS A officer 10% owner (VP, General Counsel, Secretary 409 $126.36 $51,681.60 11,555 -0.64% view
S 2014-05-13 2014-05-15 15:22:06.0 PARKER HANNIFIN CORP PH PIRAINO THOMAS A officer 10% owner (VP, General Counsel, Secretary 900 $126.39 $113,749.00 11,964 -0.62% view
S 2014-05-13 2014-05-15 15:18:08.0 PARKER HANNIFIN CORP PH MAXWELL MARTIN C officer (VP - CTIO) 999 $126.23 $126,104.00 33,717 -0.74% view
S 2014-05-13 2014-05-15 15:18:08.0 PARKER HANNIFIN CORP PH MAXWELL MARTIN C officer (VP - CTIO) 1,043 $126.25 $131,676.00 33,717 -0.73% view
S 2014-05-08 2014-05-12 14:53:42.0 PARKER HANNIFIN CORP PH BOND ROBERT W officer (VP/Pres-Fluid Connectors Group) 5,674 $125.00 $709,250.00 51,683 -2.56% view
S 2014-05-02 2014-05-06 16:26:01.0 PARKER HANNIFIN CORP PH OBOURN CANDY M director 2,686 $125.45 $336,969.00 16,005 -0.24% view
S 2014-05-06 2014-05-06 16:23:12.0 PARKER HANNIFIN CORP PH Greco John R officer (VP, Pres - Instrumentation Grp) 1,943 $123.78 $240,510.00 20,964 N/A view
S 2014-05-05 2014-05-06 16:21:34.0 PARKER HANNIFIN CORP PH Chung Yoon Michael officer (VP and Pres - Automation Group) 3,100 $124.89 $387,165.00 16,384 -2.00% view
S 2014-04-30 2014-05-01 15:57:16.0 PARKER HANNIFIN CORP PH Cullman Jeffery A officer (VP, President - Hydraulics Grp) 5,559 $125.53 $697,821.00 16,009 0.24% view
S 2014-03-13 2014-03-13 16:04:28.0 PARKER HANNIFIN CORP PH Greco John R officer (VP, Pres - Instrumentation Grp) 4,200 $119.11 $500,262.00 20,964 -0.03% view
S 2014-03-04 2014-03-06 10:31:33.0 PARKER HANNIFIN CORP PH Dedinsky John G Jr officer (VP-Gbl Supply Chain/Procuremnt) 5,119 $121.61 $622,547.00 26,032 -0.15% view
S 2014-03-03 2014-03-04 13:48:48.0 PARKER HANNIFIN CORP PH PIRAINO THOMAS A officer 10% owner (VP, General Counsel, Secretary 14,170 $119.53 $1,693,740.00 11,555 -3.12% view
S 2014-02-27 2014-02-27 16:34:36.0 PARKER HANNIFIN CORP PH BOND ROBERT W officer (VP/Pres-Fluid Connectors Group) 13,818 $119.20 $1,647,110.00 51,683 1.00% view
S 2014-01-24 2014-01-27 15:22:54.0 PARKER HANNIFIN CORP PH Popoff Peter officer (VP, President-Filtration Group) 1,503 $115.67 $173,849.00 3,453 -2.57% view
S 2013-12-06 2013-12-10 13:23:50.0 PARKER HANNIFIN CORP PH Ross Andrew D officer (VP, Pres-Engineered Materials) 900 $120.60 $108,536.00 1,230 -4.36% view
S 2013-12-06 2013-12-10 13:23:50.0 PARKER HANNIFIN CORP PH Ross Andrew D officer (VP, Pres-Engineered Materials) 28 $120.57 $3,376.04 2,130 -4.38% view
S 2013-12-06 2013-12-10 13:23:50.0 PARKER HANNIFIN CORP PH Ross Andrew D officer (VP, Pres-Engineered Materials) 300 $120.57 $36,171.30 2,158 -4.38% view
S 2013-12-06 2013-12-10 13:22:20.0 PARKER HANNIFIN CORP PH PIRAINO THOMAS A officer 10% owner (VP, General Counsel, Secretary 5,355 $120.87 $647,259.00 25,725 -4.12% view
S 2013-12-06 2013-12-10 13:20:36.0 PARKER HANNIFIN CORP PH Keller Kurt A officer (VP and Pres-Asia Pacific Group) 900 $120.73 $108,657.00 9,083 -4.24% view
S 2013-12-06 2013-12-10 13:20:36.0 PARKER HANNIFIN CORP PH Keller Kurt A officer (VP and Pres-Asia Pacific Group) 200 $120.71 $24,142.60 9,983 -4.26% view
S 2013-12-06 2013-12-10 13:20:36.0 PARKER HANNIFIN CORP PH Keller Kurt A officer (VP and Pres-Asia Pacific Group) 171 $120.71 $20,641.60 10,183 -4.26% view
S 2013-12-06 2013-12-10 13:19:28.0 PARKER HANNIFIN CORP PH HUGGINS PAMELA J officer (Vice President and Treasurer) 200 $121.04 $24,207.00 20,268 -3.98% view
S 2013-12-06 2013-12-10 13:19:28.0 PARKER HANNIFIN CORP PH HUGGINS PAMELA J officer (Vice President and Treasurer) 100 $121.03 $12,103.20 20,468 -3.98% view
S 2013-12-06 2013-12-10 13:19:28.0 PARKER HANNIFIN CORP PH HUGGINS PAMELA J officer (Vice President and Treasurer) 1,612 $121.03 $195,102.00 20,568 -3.98% view
S 2013-12-06 2013-12-10 13:14:59.0 PARKER HANNIFIN CORP PH Cullman Jeffery A officer (VP, President - Hydraulics Grp) 1,624 $121.45 $197,235.00 15,849 -3.62% view
S 2013-12-06 2013-12-10 13:14:59.0 PARKER HANNIFIN CORP PH Cullman Jeffery A officer (VP, President - Hydraulics Grp) 4,278 $121.43 $519,478.00 17,473 -3.64% view
S 2013-12-06 2013-12-10 13:14:59.0 PARKER HANNIFIN CORP PH Cullman Jeffery A officer (VP, President - Hydraulics Grp) 200 $121.42 $24,284.00 21,751 -3.65% view
S 2013-12-06 2013-12-10 13:13:09.0 PARKER HANNIFIN CORP PH Chung Yoon Michael officer (VP and Pres - Automation Group) 2,132 $120.18 $256,224.00 16,384 -4.72% view
S 2013-11-22 2013-11-25 15:58:43.0 PARKER HANNIFIN CORP PH Serbin Daniel S officer (EVP - Human Resources) 4,300 $118.38 $509,017.00 29,655 -6.62% view
S 2013-11-14 2013-11-18 16:02:20.0 PARKER HANNIFIN CORP PH BANKS LEE C officer (EVP - Operating Officer) 8,600 $116.91 $1,005,430.00 15,847 -1.76% view
S 2013-10-22 2013-10-24 14:45:11.0 PARKER HANNIFIN CORP PH Marten Jon P. officer (EVP - Finance Admin/CFO) 10,000 $114.71 $1,147,100.00 16,417 -3.41% view
S 2013-09-12 2013-09-16 10:48:38.0 PARKER HANNIFIN CORP PH Chung Yoon Michael officer (VP and Pres - Automation Group) 4,800 $104.43 $501,283.00 16,384 -3.20% view
S 2013-09-10 2013-09-12 13:14:47.0 PARKER HANNIFIN CORP PH Serbin Daniel S officer (EVP - Human Resources) 5,700 $105.87 $603,474.00 36,615 -1.12% view
S 2013-09-10 2013-09-12 13:13:07.0 PARKER HANNIFIN CORP PH HUGGINS PAMELA J officer (Vice President and Treasurer) 1,263 $105.80 $133,625.00 20,268 -1.19% view
S 2013-09-09 2013-09-10 08:26:03.0 PARKER HANNIFIN CORP PH Williams Thomas L officer (EVP - Operating Officer) 4,700 $104.71 $492,153.00 40,584 0.71% view
P 2013-08-27 2013-08-27 15:42:50.0 PARKER HANNIFIN CORP PH Lobo Kevin director 1,000 $101.32 $101,318.00 1,000 7.53% view
S 2013-08-26 2013-08-27 15:29:02.0 PARKER HANNIFIN CORP PH OBOURN CANDY M director 3,168 $103.60 $328,195.00 14,882 -6.10% view
S 2013-08-19 2013-08-20 15:10:49.0 PARKER HANNIFIN CORP PH Cullman Jeffery A officer (VP, President - Hydraulics Grp) 2,682 $103.44 $277,421.00 15,849 -4.57% view
S 2013-08-14 2013-08-15 17:29:42.0 PARKER HANNIFIN CORP PH Williams Thomas L officer (EVP - Operating Officer) 4,919 $106.18 $522,305.00 45,284 1.71% view
S 2013-08-15 2013-08-15 17:25:15.0 PARKER HANNIFIN CORP PH Popoff Peter officer (VP, President-Filtration Group) 1,282 $105.00 $134,610.00 3,453 0.61% view
S 2013-08-14 2013-08-15 17:25:15.0 PARKER HANNIFIN CORP PH Popoff Peter officer (VP, President-Filtration Group) 2,104 $106.19 $223,424.00 4,735 1.72% view
S 2013-08-15 2013-08-15 17:19:45.0 PARKER HANNIFIN CORP PH PIRAINO THOMAS A officer 10% owner (VP, General Counsel, Secretary 4,517 $103.78 $468,793.00 25,725 -0.56% view
S 2013-08-14 2013-08-15 17:19:45.0 PARKER HANNIFIN CORP PH PIRAINO THOMAS A officer 10% owner (VP, General Counsel, Secretary 6,333 $106.24 $672,842.00 30,242 1.77% view
S 2013-08-15 2013-08-15 17:16:53.0 PARKER HANNIFIN CORP PH Cullman Jeffery A officer (VP, President - Hydraulics Grp) 683 $105.00 $71,715.00 18,531 0.61% view
S 2013-08-12 2013-08-13 16:54:01.0 PARKER HANNIFIN CORP PH Saulnier Charly officer (Vice President) 6,679 $105.50 $704,634.00 24,001 0.92% view
S 2013-08-13 2013-08-13 16:21:00.0 PARKER HANNIFIN CORP PH ELINE WILLIAM G officer (VP- Chief Information Officer) 5,000 $107.15 $535,775.00 22,039 2.61% view
S 2013-08-13 2013-08-13 15:51:36.0 PARKER HANNIFIN CORP PH BANKS LEE C officer (EVP - Operating Officer) 15,000 $105.70 $1,585,530.00 24,447 1.27% view
S 2013-08-12 2013-08-13 15:51:36.0 PARKER HANNIFIN CORP PH BANKS LEE C officer (EVP - Operating Officer) 200 $105.48 $21,096.00 47,934 0.90% view
S 2013-08-12 2013-08-13 15:51:36.0 PARKER HANNIFIN CORP PH BANKS LEE C officer (EVP - Operating Officer) 400 $105.48 $42,191.20 48,134 0.90% view
S 2013-08-12 2013-08-13 15:51:36.0 PARKER HANNIFIN CORP PH BANKS LEE C officer (EVP - Operating Officer) 1,436 $105.47 $151,456.00 48,534 0.89% view
S 2013-06-07 2013-06-11 09:35:26.0 PARKER HANNIFIN CORP PH Keller Kurt A officer (VP and Pres-Asia Pacific Group) 1,022 $97.53 $99,675.70 4,564 -0.09% view
S 2013-05-30 2013-06-03 15:00:15.0 PARKER HANNIFIN CORP PH Keller Kurt A officer (VP and Pres-Asia Pacific Group) 5,602 $98.61 $552,385.00 11,235 3.25% view
S 2013-05-21 2013-05-23 13:10:14.0 PARKER HANNIFIN CORP PH Cullman Jeffery A officer (VP, President - Hydraulics Grp) 8,771 $100.50 $881,450.00 22,182 5.62% view
S 2013-05-17 2013-05-21 16:00:45.0 PARKER HANNIFIN CORP PH Ross Andrew D officer (VP and President - Seal Group) 300 $99.16 $29,748.00 1,376 1.40% view
S 2013-05-17 2013-05-21 16:00:45.0 PARKER HANNIFIN CORP PH Ross Andrew D officer (VP and President - Seal Group) 400 $99.15 $39,660.80 1,676 1.39% view
S 2013-05-17 2013-05-21 16:00:45.0 PARKER HANNIFIN CORP PH Ross Andrew D officer (VP and President - Seal Group) 951 $99.15 $94,292.60 2,076 1.39% view
S 2013-05-16 2013-05-16 14:30:32.0 PARKER HANNIFIN CORP PH Popoff Peter officer (VP, President-Filtration Group) 3,989 $96.98 $386,853.00 5,557 -0.44% view
S 2013-03-13 2013-03-14 16:27:10.0 PARKER HANNIFIN CORP PH PIRAINO THOMAS A officer 10% owner (VP, General Counsel, Secretary 100 $96.57 $9,657.20 32,241 7.80% view
S 2013-03-13 2013-03-14 16:27:10.0 PARKER HANNIFIN CORP PH PIRAINO THOMAS A officer 10% owner (VP, General Counsel, Secretary 211 $96.57 $20,375.80 32,341 7.80% view
S 2013-03-13 2013-03-14 16:27:10.0 PARKER HANNIFIN CORP PH PIRAINO THOMAS A officer 10% owner (VP, General Counsel, Secretary 562 $96.56 $54,267.30 32,552 7.79% view
S 2013-03-13 2013-03-14 16:24:05.0 PARKER HANNIFIN CORP PH Dedinsky John G Jr officer (VP-Gbl Supply Chain/Procuremnt) 2,868 $96.67 $277,261.00 24,176 7.90% view
S 2013-03-08 2013-03-12 13:39:08.0 PARKER HANNIFIN CORP PH Cullman Jeffery A officer (VP, President - Hydraulics Grp) 6,561 $97.59 $640,288.00 16,711 7.88% view
S 2013-02-19 2013-02-21 10:48:07.0 PARKER HANNIFIN CORP PH Greco John R officer (VP, Pres - Instrumentation Grp) 2,689 $97.00 $260,841.00 17,018 1.88% view
S 2013-02-15 2013-02-19 15:17:52.0 PARKER HANNIFIN CORP PH Williams Thomas L officer (EVP - Operating Officer) 1,627 $96.43 $156,887.00 37,712 -0.30% view
S 2013-02-12 2013-02-14 13:25:20.0 PARKER HANNIFIN CORP PH Ross Andrew D officer (VP and President - Seal Group) 3,580 $95.20 $340,827.00 722 -1.94% view
S 2013-02-13 2013-02-14 13:22:29.0 PARKER HANNIFIN CORP PH ELINE WILLIAM G officer (VP- Chief Information Officer) 5,000 $95.60 $478,000.00 22,143 -1.45% view
S 2010-11-15 2013-02-14 13:19:46.0 PARKER HANNIFIN CORP PH ELINE WILLIAM G officer (VP- Chief Information Officer) 400 $80.81 $32,324.00 6,310 -5.58% view
S 2010-11-15 2013-02-14 13:19:46.0 PARKER HANNIFIN CORP PH ELINE WILLIAM G officer (VP- Chief Information Officer) 400 $80.80 $32,320.00 6,710 -5.59% view
S 2010-11-15 2013-02-14 13:19:46.0 PARKER HANNIFIN CORP PH ELINE WILLIAM G officer (VP- Chief Information Officer) 100 $80.79 $8,079.00 7,110 -5.61% view
S 2010-11-15 2013-02-14 13:19:46.0 PARKER HANNIFIN CORP PH ELINE WILLIAM G officer (VP- Chief Information Officer) 1,200 $80.78 $96,936.00 7,210 -5.62% view
S 2010-11-15 2013-02-14 13:19:46.0 PARKER HANNIFIN CORP PH ELINE WILLIAM G officer (VP- Chief Information Officer) 400 $80.77 $32,308.00 8,410 -5.63% view
S 2013-02-12 2013-02-14 13:16:21.0 PARKER HANNIFIN CORP PH BANKS LEE C officer (EVP - Operating Officer) 1,009 $95.11 $95,971.00 24,380 -2.03% view
S 2013-02-11 2013-02-12 14:20:19.0 PARKER HANNIFIN CORP PH Williams Thomas L officer (EVP - Operating Officer) 5,985 $94.35 $564,685.00 37,712 -3.79% view
S 2013-02-11 2013-02-12 14:20:19.0 PARKER HANNIFIN CORP PH Williams Thomas L officer (EVP - Operating Officer) 1,015 $94.50 $95,917.50 43,697 -3.63% view
S 2011-11-08 2013-02-07 14:53:45.0 PARKER HANNIFIN CORP PH PIRAINO THOMAS A officer 10% owner (VP, General Counsel, Secretary 11,000 $83.72 $920,909.00 0 5.02% view
S 2013-02-05 2013-02-07 14:51:02.0 PARKER HANNIFIN CORP PH PIRAINO THOMAS A officer 10% owner (VP, General Counsel, Secretary 11,765 $93.83 $1,103,910.00 32,241 -2.79% view
S 2013-01-28 2013-01-30 15:07:37.0 PARKER HANNIFIN CORP PH Saulnier Charly officer (VP, Pres-Eur, Mid E. & Africa) 6,785 $94.15 $638,835.00 19,502 -0.35% view
S 2013-01-28 2013-01-30 15:02:47.0 PARKER HANNIFIN CORP PH Marten Jon P. officer (EVP - Finance Admin/CFO) 1,503 $94.08 $141,405.00 19,391 -0.42% view
S 2013-01-28 2013-01-30 15:02:47.0 PARKER HANNIFIN CORP PH Marten Jon P. officer (EVP - Finance Admin/CFO) 200 $94.09 $18,817.60 20,894 -0.42% view
S 2013-01-28 2013-01-30 15:02:47.0 PARKER HANNIFIN CORP PH Marten Jon P. officer (EVP - Finance Admin/CFO) 867 $94.07 $81,559.60 21,094 -0.43% view
S 2013-01-28 2013-01-30 14:54:40.0 PARKER HANNIFIN CORP PH Chung Yoon Michael officer (VP and Pres - Automation Group) 2,536 $93.78 $237,836.00 15,343 -0.74% view
S 2013-01-24 2013-01-28 14:07:42.0 PARKER HANNIFIN CORP PH Cullman Jeffery A officer (VP, President - Hydraulics Grp) 5,000 $94.03 $470,150.00 16,711 -0.54% view
S 2013-01-22 2013-01-24 16:52:03.0 PARKER HANNIFIN CORP PH Williams Thomas L officer (EVP - Operating Officer) 7,188 $92.01 $661,368.00 44,712 -2.75% view
S 2013-01-22 2013-01-24 16:50:59.0 PARKER HANNIFIN CORP PH Serbin Daniel S officer (EVP - Human Resources) 7,500 $93.26 $699,450.00 31,027 -1.37% view
S 2013-01-22 2013-01-24 16:49:32.0 PARKER HANNIFIN CORP PH MAXWELL MARTIN C officer (VP - Technology and Innovation) 5,000 $92.00 $460,000.00 21,481 -2.76% view
S 2013-01-22 2013-01-24 16:47:31.0 PARKER HANNIFIN CORP PH ELINE WILLIAM G officer (VP- Chief Information Officer) 5,000 $92.07 $460,350.00 24,643 -2.68% view
S 2013-01-22 2013-01-24 16:47:31.0 PARKER HANNIFIN CORP PH ELINE WILLIAM G officer (VP- Chief Information Officer) 205 $93.22 $19,110.10 29,643 -1.42% view
S 2013-01-22 2013-01-24 16:45:29.0 PARKER HANNIFIN CORP PH BANKS LEE C officer (EVP - Operating Officer) 11,751 $92.31 $1,084,730.00 57,304 -2.42% view
S 2013-01-22 2013-01-24 16:42:44.0 PARKER HANNIFIN CORP PH Greco John R officer (VP, Pres - Instrumentation Grp) 2,793 $93.25 $260,447.00 17,018 -1.38% view
S 2013-01-22 2013-01-24 16:38:01.0 PARKER HANNIFIN CORP PH Cullman Jeffery A officer (VP, President - Hydraulics Grp) 5,000 $92.00 $460,000.00 21,711 -2.76% view
S 2012-12-13 2013-01-17 16:50:18.0 PARKER HANNIFIN CORP PH Suever Catherine A officer (Vice President and Controller) 828 $82.86 $68,606.40 3,584 -7.46% view
S 2012-12-13 2012-12-13 15:14:50.0 PARKER HANNIFIN CORP PH Suever Catherine A officer (Vice President and Controller) 777 $82.86 $64,380.70 3,584 -7.46% view
S 2012-12-06 2012-12-10 13:45:27.0 PARKER HANNIFIN CORP PH Popoff Peter officer (VP, President-Filtration Group) 948 $82.01 $77,744.50 5,557 -8.31% view
S 2012-12-06 2012-12-10 13:45:27.0 PARKER HANNIFIN CORP PH Popoff Peter officer (VP, President-Filtration Group) 1,372 $81.94 $112,420.00 6,505 -8.40% view
S 2012-12-05 2012-12-06 16:21:10.0 PARKER HANNIFIN CORP PH BARKER ROBERT P officer (EVP and Operating Off) 20,794 $83.00 $1,725,900.00 30,520 -7.01% view
S 2012-11-29 2012-12-03 16:02:44.0 PARKER HANNIFIN CORP PH BOND ROBERT W officer (VP/Pres-Fluid Connectors Group) 9,724 $83.40 $810,982.00 49,398 -0.55% view
S 2012-11-01 2012-11-01 16:42:55.0 PARKER HANNIFIN CORP PH Popoff Peter officer (VP, President-Filtration Group) 8,900 $79.00 $703,100.00 5,557 -3.99% view
S 2012-09-14 2012-09-17 16:20:04.0 PARKER HANNIFIN CORP PH Healy Thomas F officer (VP, President - CIC Group) 2,250 $86.17 $193,880.00 28,582 7.86% view
S 2012-09-14 2012-09-17 16:20:04.0 PARKER HANNIFIN CORP PH Healy Thomas F officer (VP, President - CIC Group) 1,577 $86.30 $136,092.00 30,832 7.99% view
S 2012-09-12 2012-09-13 15:36:03.0 PARKER HANNIFIN CORP PH HUGGINS PAMELA J officer (Vice President and Treasurer) 3,935 $84.38 $332,016.00 569 5.90% view
S 2012-09-12 2012-09-13 15:36:03.0 PARKER HANNIFIN CORP PH HUGGINS PAMELA J officer (Vice President and Treasurer) 4,183 $84.18 $352,104.00 13,601 5.67% view
S 2012-09-12 2012-09-13 15:36:03.0 PARKER HANNIFIN CORP PH HUGGINS PAMELA J officer (Vice President and Treasurer) 6,132 $84.22 $516,431.00 17,784 5.72% view
S 2012-09-11 2012-09-11 16:35:53.0 PARKER HANNIFIN CORP PH OBOURN CANDY M director 3,559 $83.75 $298,063.00 13,424 5.46% view
S 2012-09-10 2012-09-11 10:45:48.0 PARKER HANNIFIN CORP PH Cullman Jeffery A officer (VP, President - Hydraulics Grp) 10,088 $84.39 $851,296.00 26,711 6.10% view
S 2012-08-03 2012-08-21 17:09:52.0 PARKER HANNIFIN CORP PH BARKER ROBERT P officer (EVP and Operating Off) 7,578 $79.33 $601,163.00 41,557 -0.82% view
S 2012-08-16 2012-08-16 17:46:59.0 PARKER HANNIFIN CORP PH Hoelting William R officer (Vice President - Tax) 100 $82.50 $8,250.20 10,255 -4.70% view
S 2012-08-16 2012-08-16 17:46:59.0 PARKER HANNIFIN CORP PH Hoelting William R officer (Vice President - Tax) 1,400 $82.49 $115,487.00 10,355 -4.71% view
S 2012-02-21 2012-02-23 09:55:34.0 PARKER HANNIFIN CORP PH Dedinsky John G Jr officer (VP-Gbl Supply Chain/Procuremnt) 1,215 $90.34 $109,763.00 13,214 3.32% view
S 2012-02-21 2012-02-23 09:54:16.0 PARKER HANNIFIN CORP PH BOND ROBERT W officer (VP/Pres-Fluid Connectors Group) 7,000 $90.00 $630,000.00 40,197 2.96% view
S 2012-02-16 2012-02-21 15:53:36.0 PARKER HANNIFIN CORP PH Popoff Peter officer (VP, President-Filtration Group) 17,477 $88.92 $1,554,050.00 10,478 -1.38% view
S 2012-02-08 2012-02-09 15:13:58.0 PARKER HANNIFIN CORP PH Suever Catherine A officer (Vice President and Controller) 1,098 $88.00 $96,624.00 1,207 0.17% view
S 2011-12-13 2011-12-13 16:29:18.0 PARKER HANNIFIN CORP PH MULLER KLAUS PETER director 345 $80.43 $27,749.00 27,504 -2.50% view
S 2011-12-05 2011-12-06 15:52:46.0 PARKER HANNIFIN CORP PH Healy Thomas F officer (VP, President - CIC Group) 2,576 $84.40 $217,414.00 20,608 6.47% view
S 2011-12-02 2011-12-06 15:50:50.0 PARKER HANNIFIN CORP PH Williams Thomas L officer (EVP - Operating Officer) 12,674 $83.77 $1,061,700.00 32,514 8.98% view
S 2011-11-15 2011-11-17 16:29:26.0 PARKER HANNIFIN CORP PH Hoelting William R officer (Vice President - Tax) 1,503 $84.96 $127,695.00 7,114 10.92% view
S 2011-11-11 2011-11-15 11:15:47.0 PARKER HANNIFIN CORP PH BOND ROBERT W officer (VP/Pres-Fluid Connectors Group) 4,164 $84.01 $349,818.00 38,557 3.56% view
S 2011-11-08 2011-11-10 13:14:51.0 PARKER HANNIFIN CORP PH PIRAINO THOMAS A officer 10% owner (VP, General Counsel, Secretary 11,000 $83.72 $920,909.00 19,179 5.02% view
S 2011-11-01 2011-11-03 14:55:17.0 PARKER HANNIFIN CORP PH MAXWELL MARTIN C officer (VP - Technology and Innovation) 3,850 $79.63 $306,591.00 15,622 -4.25% view
S 2011-10-31 2011-11-01 10:20:48.0 PARKER HANNIFIN CORP PH OBOURN CANDY M director 100 $81.70 $8,170.40 16,983 -1.32% view
S 2011-10-31 2011-11-01 10:20:48.0 PARKER HANNIFIN CORP PH OBOURN CANDY M director 300 $81.69 $24,508.20 17,083 -1.33% view
S 2011-10-31 2011-11-01 10:20:48.0 PARKER HANNIFIN CORP PH OBOURN CANDY M director 706 $81.69 $57,674.60 17,383 -1.33% view
P 2011-08-03 2011-08-04 13:34:34.0 PARKER HANNIFIN CORP PH WAINSCOTT JAMES L director 200 $71.19 $14,237.20 5,620 -2.49% view
P 2011-08-03 2011-08-04 13:34:34.0 PARKER HANNIFIN CORP PH WAINSCOTT JAMES L director 800 $71.21 $56,968.00 5,420 -2.53% view
P 2006-02-17 2011-05-10 13:25:11.0 PARKER HANNIFIN CORP PH Williams Thomas L officer (EVP - Operating Officer) 3 $79.88 $239.64 33,286 3.56% view
S 2011-05-06 2011-05-09 15:37:09.0 PARKER HANNIFIN CORP PH BARKER ROBERT P officer (EVP - Optg Off, Pres-Aerospace) 6,926 $88.70 $614,336.00 17,914 1.74% view
S 2011-04-29 2011-05-09 15:37:09.0 PARKER HANNIFIN CORP PH BARKER ROBERT P officer (EVP - Optg Off, Pres-Aerospace) 13,074 $95.00 $1,242,030.00 17,225 5.92% view
S 2011-04-29 2011-05-03 16:47:48.0 PARKER HANNIFIN CORP PH Williams Thomas L officer (EVP - Operating Officer) 8,000 $95.00 $760,000.00 33,282 5.92% view
S 2011-05-03 2011-05-03 16:45:53.0 PARKER HANNIFIN CORP PH MAXWELL MARTIN C officer (VP - Technology and Innovation) 1,747 $95.25 $166,402.00 16,349 9.41% view
S 2011-04-28 2011-05-02 15:07:03.0 PARKER HANNIFIN CORP PH OBOURN CANDY M director 1,075 $93.84 $100,882.00 15,482 4.76% view
S 2011-03-04 2011-03-07 16:30:07.0 PARKER HANNIFIN CORP PH Saulnier Charly officer (VP, Pres-Eur, Mid E. & Africa) 200 $87.06 $17,412.00 4,633 -10.50% view
S 2011-03-04 2011-03-07 16:30:07.0 PARKER HANNIFIN CORP PH Saulnier Charly officer (VP, Pres-Eur, Mid E. & Africa) 725 $87.05 $63,111.20 4,833 -10.51% view
S 2011-03-04 2011-03-07 16:30:07.0 PARKER HANNIFIN CORP PH Saulnier Charly officer (VP, Pres-Eur, Mid E. & Africa) 2,576 $87.04 $224,215.00 5,558 -10.52% view
S 2011-02-15 2011-02-17 11:53:20.0 PARKER HANNIFIN CORP PH Harty Linda S director 1,100 $91.16 $100,276.00 5,599 5.98% view
S 2011-02-15 2011-02-17 11:53:20.0 PARKER HANNIFIN CORP PH Harty Linda S director 900 $91.15 $82,035.00 6,699 5.97% view
S 2011-02-15 2011-02-17 11:52:03.0 PARKER HANNIFIN CORP PH Greco John R officer (VP, Pres - Instrumentation Grp) 700 $91.27 $63,889.00 8,124 6.09% view
S 2011-02-15 2011-02-17 11:52:03.0 PARKER HANNIFIN CORP PH Greco John R officer (VP, Pres - Instrumentation Grp) 100 $91.26 $9,126.00 8,824 6.08% view
S 2011-02-15 2011-02-17 11:52:03.0 PARKER HANNIFIN CORP PH Greco John R officer (VP, Pres - Instrumentation Grp) 100 $91.25 $9,125.00 8,924 6.07% view
S 2011-02-15 2011-02-17 11:52:03.0 PARKER HANNIFIN CORP PH Greco John R officer (VP, Pres - Instrumentation Grp) 1,595 $91.24 $145,528.00 9,024 6.06% view
S 2011-02-14 2011-02-15 16:56:40.0 PARKER HANNIFIN CORP PH Cullman Jeffery A officer (VP, President - Hydraulics Grp) 19 $92.92 $1,765.54 14,373 7.44% view
S 2011-02-14 2011-02-15 16:56:40.0 PARKER HANNIFIN CORP PH Cullman Jeffery A officer (VP, President - Hydraulics Grp) 1,074 $92.92 $99,798.20 14,392 7.44% view
S 2011-02-14 2011-02-15 16:56:40.0 PARKER HANNIFIN CORP PH Cullman Jeffery A officer (VP, President - Hydraulics Grp) 685 $92.92 $63,650.90 15,466 7.44% view
S 2011-02-14 2011-02-15 16:56:40.0 PARKER HANNIFIN CORP PH Cullman Jeffery A officer (VP, President - Hydraulics Grp) 100 $92.91 $9,291.30 16,151 7.43% view
S 2011-02-14 2011-02-15 16:56:40.0 PARKER HANNIFIN CORP PH Cullman Jeffery A officer (VP, President - Hydraulics Grp) 200 $92.90 $18,580.80 16,251 7.42% view
S 2011-02-14 2011-02-15 16:56:40.0 PARKER HANNIFIN CORP PH Cullman Jeffery A officer (VP, President - Hydraulics Grp) 700 $92.90 $65,030.70 16,451 7.42% view
S 2011-02-14 2011-02-15 16:56:40.0 PARKER HANNIFIN CORP PH Cullman Jeffery A officer (VP, President - Hydraulics Grp) 1,567 $92.89 $145,562.00 17,151 7.41% view
S 2011-02-14 2011-02-15 16:56:40.0 PARKER HANNIFIN CORP PH Cullman Jeffery A officer (VP, President - Hydraulics Grp) 400 $92.88 $37,152.40 18,718 7.40% view
S 2011-02-14 2011-02-15 15:55:13.0 PARKER HANNIFIN CORP PH BOND ROBERT W officer (VP/Pres-Fluid Connectors Group) 4,398 $93.15 $409,674.00 31,755 7.67% view
S 2011-02-11 2011-02-14 15:54:25.0 PARKER HANNIFIN CORP PH Popoff Peter officer (VP, President-Filtration Group) 1,126 $92.19 $103,806.00 4,851 7.38% view
S 2011-02-11 2011-02-14 15:54:25.0 PARKER HANNIFIN CORP PH Popoff Peter officer (VP, President-Filtration Group) 100 $92.18 $9,218.50 5,977 7.37% view
S 2011-02-11 2011-02-14 15:54:25.0 PARKER HANNIFIN CORP PH Popoff Peter officer (VP, President-Filtration Group) 700 $92.18 $64,526.70 6,077 7.37% view
S 2011-02-10 2011-02-14 15:52:30.0 PARKER HANNIFIN CORP PH TAMBAKERAS MARKOS I director 700 $91.44 $64,008.00 13,041 7.90% view
S 2011-02-10 2011-02-14 15:52:30.0 PARKER HANNIFIN CORP PH TAMBAKERAS MARKOS I director 17 $91.43 $1,554.31 13,741 7.89% view
S 2011-02-10 2011-02-14 15:52:30.0 PARKER HANNIFIN CORP PH TAMBAKERAS MARKOS I director 17 $91.42 $1,554.14 13,758 7.88% view
S 2011-02-10 2011-02-14 15:52:30.0 PARKER HANNIFIN CORP PH TAMBAKERAS MARKOS I director 1,666 $91.41 $152,289.00 13,775 7.87% view
S 2011-02-10 2011-02-14 15:52:30.0 PARKER HANNIFIN CORP PH TAMBAKERAS MARKOS I director 600 $91.40 $54,840.00 15,441 7.86% view
S 2011-02-08 2011-02-10 11:23:23.0 PARKER HANNIFIN CORP PH SCAMINACE JOSEPH director 1,000 $92.00 $92,001.00 10,559 6.53% view
S 2011-02-08 2011-02-10 11:23:23.0 PARKER HANNIFIN CORP PH SCAMINACE JOSEPH director 200 $91.97 $18,394.00 11,559 6.50% view
S 2011-02-08 2011-02-10 11:23:23.0 PARKER HANNIFIN CORP PH SCAMINACE JOSEPH director 357 $91.95 $32,824.70 11,759 6.48% view
S 2011-02-08 2011-02-10 11:23:23.0 PARKER HANNIFIN CORP PH SCAMINACE JOSEPH director 200 $91.94 $18,388.40 12,116 6.47% view
S 2011-02-08 2011-02-10 11:23:23.0 PARKER HANNIFIN CORP PH SCAMINACE JOSEPH director 900 $91.94 $82,746.90 12,316 6.47% view
S 2011-02-08 2011-02-10 11:23:23.0 PARKER HANNIFIN CORP PH SCAMINACE JOSEPH director 19 $91.93 $1,746.61 13,216 6.46% view
S 2011-02-08 2011-02-10 11:23:23.0 PARKER HANNIFIN CORP PH SCAMINACE JOSEPH director 100 $91.93 $9,192.50 13,235 6.46% view
S 2011-02-08 2011-02-10 11:23:23.0 PARKER HANNIFIN CORP PH SCAMINACE JOSEPH director 87 $91.92 $7,997.39 13,335 6.46% view
S 2011-02-08 2011-02-10 11:23:21.0 PARKER HANNIFIN CORP PH SCAMINACE JOSEPH director 300 $91.91 $27,573.30 13,422 6.44% view
S 2011-02-04 2011-02-08 15:48:53.0 PARKER HANNIFIN CORP PH Popoff Peter officer (VP, President-Filtration Group) 400 $90.04 $36,014.00 4,851 3.00% view
S 2011-02-04 2011-02-08 15:48:53.0 PARKER HANNIFIN CORP PH Popoff Peter officer (VP, President-Filtration Group) 500 $90.03 $45,015.50 5,251 3.00% view
S 2011-02-04 2011-02-08 15:48:53.0 PARKER HANNIFIN CORP PH Popoff Peter officer (VP, President-Filtration Group) 200 $90.03 $18,005.20 5,751 2.99% view
S 2011-02-04 2011-02-08 15:48:53.0 PARKER HANNIFIN CORP PH Popoff Peter officer (VP, President-Filtration Group) 1,343 $90.02 $120,891.00 5,951 2.98% view
S 2011-02-04 2011-02-08 15:48:53.0 PARKER HANNIFIN CORP PH Popoff Peter officer (VP, President-Filtration Group) 400 $90.01 $36,003.20 7,294 2.98% view
S 2011-02-04 2011-02-08 15:48:52.0 PARKER HANNIFIN CORP PH Popoff Peter officer (VP, President-Filtration Group) 400 $90.00 $36,000.40 7,694 2.97% view
S 2011-02-08 2011-02-08 15:46:39.0 PARKER HANNIFIN CORP PH Cullman Jeffery A officer (VP, President - Hydraulics Grp) 100 $91.61 $9,161.00 14,373 6.13% view
S 2011-02-08 2011-02-08 15:46:39.0 PARKER HANNIFIN CORP PH Cullman Jeffery A officer (VP, President - Hydraulics Grp) 100 $91.60 $9,160.00 14,473 6.12% view
S 2011-02-08 2011-02-08 15:46:39.0 PARKER HANNIFIN CORP PH Cullman Jeffery A officer (VP, President - Hydraulics Grp) 2,602 $91.58 $238,302.00 14,573 6.11% view
S 2011-02-08 2011-02-08 15:46:39.0 PARKER HANNIFIN CORP PH Cullman Jeffery A officer (VP, President - Hydraulics Grp) 100 $91.57 $9,157.20 17,175 6.10% view
S 2011-02-08 2011-02-08 15:46:39.0 PARKER HANNIFIN CORP PH Cullman Jeffery A officer (VP, President - Hydraulics Grp) 200 $91.56 $18,312.20 17,275 6.08% view
S 2011-02-04 2011-02-07 14:29:59.0 PARKER HANNIFIN CORP PH ELINE WILLIAM G officer (VP- Chief Information Officer) 1,676 $90.23 $151,222.00 21,054 3.21% view
S 2011-02-02 2011-02-03 14:37:59.0 PARKER HANNIFIN CORP PH PISTELL TIMOTHY K officer (Executive Vice President) 19,000 $90.48 $1,719,120.00 20,375 4.26% view
S 2011-02-02 2011-02-03 14:37:59.0 PARKER HANNIFIN CORP PH PISTELL TIMOTHY K officer (Executive Vice President) 21,568 $89.87 $1,938,320.00 39,375 3.61% view
S 2010-12-13 2010-12-15 17:28:13.0 PARKER HANNIFIN CORP PH PISTELL TIMOTHY K officer (Executive Vice President) 100 $86.51 $8,651.00 39,375 -3.14% view
S 2010-12-13 2010-12-15 17:28:13.0 PARKER HANNIFIN CORP PH PISTELL TIMOTHY K officer (Executive Vice President) 159 $86.50 $13,753.50 39,475 -3.16% view
S 2010-12-13 2010-12-15 17:28:13.0 PARKER HANNIFIN CORP PH PISTELL TIMOTHY K officer (Executive Vice President) 1,000 $86.49 $86,490.00 39,634 -3.17% view
S 2010-12-13 2010-12-15 17:28:13.0 PARKER HANNIFIN CORP PH PISTELL TIMOTHY K officer (Executive Vice President) 6,700 $86.48 $579,416.00 40,634 -3.18% view
S 2010-12-13 2010-12-15 17:28:13.0 PARKER HANNIFIN CORP PH PISTELL TIMOTHY K officer (Executive Vice President) 800 $86.47 $69,176.00 47,334 -3.19% view
S 2010-12-13 2010-12-15 17:28:13.0 PARKER HANNIFIN CORP PH PISTELL TIMOTHY K officer (Executive Vice President) 400 $86.46 $34,584.00 48,134 -3.20% view
S 2010-12-13 2010-12-15 17:28:13.0 PARKER HANNIFIN CORP PH PISTELL TIMOTHY K officer (Executive Vice President) 200 $86.39 $17,278.00 48,534 -3.29% view
S 2010-12-13 2010-12-15 17:28:13.0 PARKER HANNIFIN CORP PH PISTELL TIMOTHY K officer (Executive Vice President) 532 $86.38 $45,954.20 48,734 -3.30% view
S 2010-12-13 2010-12-15 17:28:13.0 PARKER HANNIFIN CORP PH PISTELL TIMOTHY K officer (Executive Vice President) 200 $86.32 $17,264.00 49,266 -3.37% view
S 2010-12-13 2010-12-15 17:28:13.0 PARKER HANNIFIN CORP PH PISTELL TIMOTHY K officer (Executive Vice President) 1,000 $86.31 $86,310.00 49,466 -3.38% view
S 2010-12-13 2010-12-15 17:28:13.0 PARKER HANNIFIN CORP PH PISTELL TIMOTHY K officer (Executive Vice President) 500 $86.30 $43,150.00 50,466 -3.40% view
S 2010-12-13 2010-12-15 17:28:13.0 PARKER HANNIFIN CORP PH PISTELL TIMOTHY K officer (Executive Vice President) 300 $86.29 $25,887.00 50,966 -3.41% view
S 2010-12-13 2010-12-15 17:28:13.0 PARKER HANNIFIN CORP PH PISTELL TIMOTHY K officer (Executive Vice President) 200 $86.26 $17,252.00 51,266 -3.44% view
S 2010-12-13 2010-12-15 17:28:13.0 PARKER HANNIFIN CORP PH PISTELL TIMOTHY K officer (Executive Vice President) 300 $86.25 $25,875.00 51,466 -3.46% view
S 2010-12-13 2010-12-15 17:28:13.0 PARKER HANNIFIN CORP PH PISTELL TIMOTHY K officer (Executive Vice President) 500 $86.24 $43,120.00 51,766 -3.47% view
S 2010-12-13 2010-12-15 17:28:13.0 PARKER HANNIFIN CORP PH PISTELL TIMOTHY K officer (Executive Vice President) 341 $86.23 $29,404.40 52,266 -3.48% view
S 2010-12-13 2010-12-15 17:28:13.0 PARKER HANNIFIN CORP PH PISTELL TIMOTHY K officer (Executive Vice President) 944 $86.22 $81,391.70 52,607 -3.49% view
S 2010-12-10 2010-12-14 15:19:19.0 PARKER HANNIFIN CORP PH Chung Yoon Michael officer (VP, Pres-Asia Pacific Group) 400 $85.43 $34,172.00 4,001 -2.13% view
S 2010-12-10 2010-12-14 15:19:19.0 PARKER HANNIFIN CORP PH Chung Yoon Michael officer (VP, Pres-Asia Pacific Group) 882 $85.42 $75,340.40 4,401 -2.14% view
S 2010-12-10 2010-12-14 15:19:19.0 PARKER HANNIFIN CORP PH Chung Yoon Michael officer (VP, Pres-Asia Pacific Group) 1,007 $85.41 $86,007.90 5,283 -2.15% view
S 2010-12-08 2010-12-09 15:46:15.0 PARKER HANNIFIN CORP PH ELINE WILLIAM G officer (VP- Chief Information Officer) 676 $85.38 $57,716.90 17,594 -0.78% view
S 2010-12-08 2010-12-09 15:46:11.0 PARKER HANNIFIN CORP PH ELINE WILLIAM G officer (VP- Chief Information Officer) 700 $85.37 $59,759.00 18,270 -0.80% view
S 2010-12-06 2010-12-07 17:40:52.0 PARKER HANNIFIN CORP PH Hoelting William R officer (Vice President - Tax) 1,365 $84.06 $114,742.00 4,512 -2.20% view
S 2010-12-06 2010-12-07 17:40:52.0 PARKER HANNIFIN CORP PH Hoelting William R officer (Vice President - Tax) 100 $84.05 $8,405.00 5,877 -2.21% view
S 2010-12-06 2010-12-07 17:40:52.0 PARKER HANNIFIN CORP PH Hoelting William R officer (Vice President - Tax) 1,494 $84.04 $125,556.00 5,977 -2.23% view
S 2010-12-07 2010-12-07 17:37:55.0 PARKER HANNIFIN CORP PH Dedinsky John G Jr officer (VP-Gbl Supply Chain/Procuremnt) 1,177 $85.72 $100,892.00 9,056 -0.38% view
S 2010-12-02 2010-12-06 15:24:59.0 PARKER HANNIFIN CORP PH Keller Kurt A officer (VP, President - Seal Group) 600 $83.87 $50,322.00 1,151 -2.90% view
S 2010-12-02 2010-12-06 15:24:59.0 PARKER HANNIFIN CORP PH Keller Kurt A officer (VP, President - Seal Group) 2,815 $83.85 $236,038.00 1,751 -2.92% view
S 2010-12-02 2010-12-06 15:23:50.0 PARKER HANNIFIN CORP PH HUGGINS PAMELA J officer (Vice President and Treasurer) 600 $84.21 $50,526.00 11,162 -2.48% view
S 2010-12-02 2010-12-06 15:23:50.0 PARKER HANNIFIN CORP PH HUGGINS PAMELA J officer (Vice President and Treasurer) 2,157 $84.20 $181,619.00 11,762 -2.49% view
S 2010-12-02 2010-12-06 15:23:50.0 PARKER HANNIFIN CORP PH HUGGINS PAMELA J officer (Vice President and Treasurer) 69 $84.19 $5,809.11 13,919 -2.51% view
S 2010-12-02 2010-12-06 15:23:50.0 PARKER HANNIFIN CORP PH HUGGINS PAMELA J officer (Vice President and Treasurer) 266 $83.98 $22,338.70 7 -2.76% view
S 2010-12-02 2010-12-06 15:23:50.0 PARKER HANNIFIN CORP PH HUGGINS PAMELA J officer (Vice President and Treasurer) 100 $83.97 $8,397.00 273 -2.77% view
S 2010-12-02 2010-12-06 15:23:50.0 PARKER HANNIFIN CORP PH HUGGINS PAMELA J officer (Vice President and Treasurer) 900 $83.96 $75,564.00 373 -2.79% view
S 2010-12-02 2010-12-06 15:23:50.0 PARKER HANNIFIN CORP PH HUGGINS PAMELA J officer (Vice President and Treasurer) 1,112 $83.94 $93,341.30 1,273 -2.81% view
S 2010-11-18 2010-11-18 17:32:40.0 PARKER HANNIFIN CORP PH Chung Yoon Michael officer (VP, Pres-Asia Pacific Group) 1,500 $80.40 $120,600.00 4,001 -5.50% view
S 2010-11-18 2010-11-18 17:32:40.0 PARKER HANNIFIN CORP PH Chung Yoon Michael officer (VP, Pres-Asia Pacific Group) 586 $80.43 $47,132.00 5,501 -5.46% view
S 2010-11-18 2010-11-18 17:31:17.0 PARKER HANNIFIN CORP PH BARKER ROBERT P officer (EVP - Optg Off, Pres-Aerospace) 443 $80.40 $35,617.20 27,773 -5.50% view
S 2010-11-18 2010-11-18 17:31:17.0 PARKER HANNIFIN CORP PH BARKER ROBERT P officer (EVP - Optg Off, Pres-Aerospace) 166 $80.39 $13,344.70 28,216 -5.51% view
S 2010-11-18 2010-11-18 17:31:17.0 PARKER HANNIFIN CORP PH BARKER ROBERT P officer (EVP - Optg Off, Pres-Aerospace) 300 $80.38 $24,114.00 28,382 -5.52% view
S 2010-11-18 2010-11-18 17:31:17.0 PARKER HANNIFIN CORP PH BARKER ROBERT P officer (EVP - Optg Off, Pres-Aerospace) 2,038 $80.37 $163,794.00 28,682 -5.54% view
S 2010-11-18 2010-11-18 17:31:17.0 PARKER HANNIFIN CORP PH BARKER ROBERT P officer (EVP - Optg Off, Pres-Aerospace) 1,800 $80.36 $144,648.00 30,720 -5.55% view
S 2010-11-15 2010-11-16 10:51:25.0 PARKER HANNIFIN CORP PH Serbin Daniel S officer (VP - Human Resources) 400 $80.77 $32,308.00 21,568 -5.63% view
S 2010-11-15 2010-11-16 10:51:25.0 PARKER HANNIFIN CORP PH Serbin Daniel S officer (VP - Human Resources) 712 $80.76 $57,501.10 21,968 -5.65% view
S 2010-11-15 2010-11-16 10:51:25.0 PARKER HANNIFIN CORP PH Serbin Daniel S officer (VP - Human Resources) 600 $80.75 $48,450.00 22,680 -5.66% view
S 2010-11-15 2010-11-16 10:51:25.0 PARKER HANNIFIN CORP PH Serbin Daniel S officer (VP - Human Resources) 1,358 $80.74 $109,645.00 23,280 -5.67% view
S 2010-11-15 2010-11-16 10:51:25.0 PARKER HANNIFIN CORP PH Serbin Daniel S officer (VP - Human Resources) 800 $80.73 $64,584.00 24,638 -5.69% view
S 2010-11-15 2010-11-16 10:31:41.0 PARKER HANNIFIN CORP PH ELINE WILLIAM G officer (VP- Chief Information Officer) 400 $80.81 $32,324.00 13,941 -5.58% view
S 2010-11-15 2010-11-16 10:31:41.0 PARKER HANNIFIN CORP PH ELINE WILLIAM G officer (VP- Chief Information Officer) 400 $80.80 $32,320.00 14,341 -5.59% view
S 2010-11-15 2010-11-16 10:31:41.0 PARKER HANNIFIN CORP PH ELINE WILLIAM G officer (VP- Chief Information Officer) 100 $80.79 $8,079.00 14,741 -5.61% view
S 2010-11-15 2010-11-16 10:31:41.0 PARKER HANNIFIN CORP PH ELINE WILLIAM G officer (VP- Chief Information Officer) 1,200 $80.78 $96,936.00 14,841 -5.62% view
S 2010-11-15 2010-11-16 10:31:41.0 PARKER HANNIFIN CORP PH ELINE WILLIAM G officer (VP- Chief Information Officer) 400 $80.77 $32,308.00 16,041 -5.63% view
S 2010-11-15 2010-11-15 16:42:41.0 PARKER HANNIFIN CORP PH BOND ROBERT W officer (VP/Pres-Fluid Connectors Group) 4,560 $80.80 $368,448.00 31,755 -5.59% view
S 2010-11-15 2010-11-15 16:42:41.0 PARKER HANNIFIN CORP PH BOND ROBERT W officer (VP/Pres-Fluid Connectors Group) 3,900 $80.79 $315,081.00 36,315 -5.61% view
S 2010-11-11 2010-11-15 16:42:41.0 PARKER HANNIFIN CORP PH BOND ROBERT W officer (VP/Pres-Fluid Connectors Group) 300 $81.29 $24,387.00 40,215 -5.97% view
S 2010-11-11 2010-11-15 16:42:41.0 PARKER HANNIFIN CORP PH BOND ROBERT W officer (VP/Pres-Fluid Connectors Group) 1,735 $81.28 $141,021.00 40,515 -5.98% view
S 2010-11-11 2010-11-15 16:42:41.0 PARKER HANNIFIN CORP PH BOND ROBERT W officer (VP/Pres-Fluid Connectors Group) 59 $81.27 $4,794.93 42,250 -5.99% view
S 2010-11-11 2010-11-15 16:38:31.0 PARKER HANNIFIN CORP PH KASSLING WILLIAM E director 7,361 $81.02 $596,388.00 22,238 -6.32% view
S 2010-11-10 2010-11-12 10:56:38.0 PARKER HANNIFIN CORP PH PIRAINO THOMAS A officer 10% owner (VP, General Counsel, Secretary 1,482 $80.47 $119,257.00 16,514 -7.05% view
S 2010-11-10 2010-11-12 10:56:38.0 PARKER HANNIFIN CORP PH PIRAINO THOMAS A officer 10% owner (VP, General Counsel, Secretary 523 $80.46 $42,080.60 17,996 -7.06% view
S 2010-11-10 2010-11-12 10:56:38.0 PARKER HANNIFIN CORP PH PIRAINO THOMAS A officer 10% owner (VP, General Counsel, Secretary 123 $80.45 $9,895.35 18,519 -7.07% view
S 2010-11-10 2010-11-12 10:56:38.0 PARKER HANNIFIN CORP PH PIRAINO THOMAS A officer 10% owner (VP, General Counsel, Secretary 1,181 $80.44 $94,999.60 18,642 -7.09% view
S 2010-11-10 2010-11-12 10:56:38.0 PARKER HANNIFIN CORP PH PIRAINO THOMAS A officer 10% owner (VP, General Counsel, Secretary 1,400 $80.43 $112,602.00 19,823 -7.10% view
S 2010-11-09 2010-11-12 10:54:52.0 PARKER HANNIFIN CORP PH Marten Jon P. officer (VP, Controller) 2,267 $80.07 $181,519.00 1,667 -6.21% view
S 2010-11-09 2010-11-12 10:54:52.0 PARKER HANNIFIN CORP PH Marten Jon P. officer (VP, Controller) 100 $80.06 $8,006.00 3,934 -6.22% view
S 2010-11-08 2010-11-09 09:24:29.0 PARKER HANNIFIN CORP PH Dedinsky John G Jr officer (VP-Gbl Supply Chain/Procuremnt) 239 $80.60 $19,291.00 0 -5.57% view
S 2010-11-05 2010-11-08 16:08:23.0 PARKER HANNIFIN CORP PH PISTELL TIMOTHY K officer (EVP- Finance Admin/CFO) 6,654 $79.93 $531,854.00 54,215 -5.37% view
S 2010-11-04 2010-11-08 16:08:23.0 PARKER HANNIFIN CORP PH PISTELL TIMOTHY K officer (EVP- Finance Admin/CFO) 19,651 $80.32 $1,578,370.00 60,869 -4.86% view
S 2010-11-04 2010-11-08 16:08:23.0 PARKER HANNIFIN CORP PH PISTELL TIMOTHY K officer (EVP- Finance Admin/CFO) 18,695 $80.25 $1,500,270.00 80,520 -4.95% view
S 2010-11-05 2010-11-08 13:40:19.0 PARKER HANNIFIN CORP PH BANKS LEE C officer (EVP - Operating Officer) 12,500 $80.00 $1,000,000.00 27,591 -5.28% view
S 2010-11-02 2010-11-02 16:49:02.0 PARKER HANNIFIN CORP PH MAXWELL MARTIN C officer (VP - Technology and Innovation) 722 $78.51 $56,684.20 18,096 -6.98% view
S 2010-11-02 2010-11-02 16:49:02.0 PARKER HANNIFIN CORP PH MAXWELL MARTIN C officer (VP - Technology and Innovation) 178 $78.50 $13,973.00 18,818 -6.99% view
S 2010-11-02 2010-11-02 16:49:02.0 PARKER HANNIFIN CORP PH MAXWELL MARTIN C officer (VP - Technology and Innovation) 400 $78.49 $31,396.00 18,996 -7.01% view
S 2010-11-02 2010-11-02 16:49:02.0 PARKER HANNIFIN CORP PH MAXWELL MARTIN C officer (VP - Technology and Innovation) 400 $78.48 $31,392.00 19,396 -7.02% view
S 2010-11-02 2010-11-02 16:49:02.0 PARKER HANNIFIN CORP PH MAXWELL MARTIN C officer (VP - Technology and Innovation) 1,400 $78.47 $109,858.00 19,796 -7.03% view
S 2010-11-02 2010-11-02 16:49:02.0 PARKER HANNIFIN CORP PH MAXWELL MARTIN C officer (VP - Technology and Innovation) 1,100 $78.46 $86,306.00 21,196 -7.05% view
S 2010-11-02 2010-11-02 16:49:02.0 PARKER HANNIFIN CORP PH MAXWELL MARTIN C officer (VP - Technology and Innovation) 500 $78.45 $39,225.00 22,296 -7.06% view
S 2010-11-02 2010-11-02 16:49:02.0 PARKER HANNIFIN CORP PH MAXWELL MARTIN C officer (VP - Technology and Innovation) 1,500 $78.44 $117,660.00 22,796 -7.08% view
S 2010-11-02 2010-11-02 16:49:02.0 PARKER HANNIFIN CORP PH MAXWELL MARTIN C officer (VP - Technology and Innovation) 300 $78.43 $23,529.00 24,296 -7.09% view
S 2010-11-01 2010-11-02 13:40:39.0 PARKER HANNIFIN CORP PH Popoff Peter officer (VP, President-Filtration Group) 3,100 $77.78 $241,118.00 4,851 -6.96% view
S 2010-11-01 2010-11-02 13:40:39.0 PARKER HANNIFIN CORP PH Popoff Peter officer (VP, President-Filtration Group) 3,105 $77.77 $241,476.00 7,951 -6.97% view
S 2010-10-27 2010-10-28 16:02:31.0 PARKER HANNIFIN CORP PH Sherrard Roger S officer (VP, Pres - Automation Group) 200 $75.97 $15,194.00 22,798 -7.23% view
S 2010-10-27 2010-10-28 16:02:31.0 PARKER HANNIFIN CORP PH Sherrard Roger S officer (VP, Pres - Automation Group) 813 $75.96 $61,755.50 22,998 -7.24% view
S 2010-10-27 2010-10-28 16:02:31.0 PARKER HANNIFIN CORP PH Sherrard Roger S officer (VP, Pres - Automation Group) 100 $75.95 $7,595.14 23,811 -7.25% view
S 2010-10-27 2010-10-28 16:02:31.0 PARKER HANNIFIN CORP PH Sherrard Roger S officer (VP, Pres - Automation Group) 100 $75.95 $7,595.13 23,911 -7.25% view
S 2010-10-27 2010-10-28 16:02:31.0 PARKER HANNIFIN CORP PH Sherrard Roger S officer (VP, Pres - Automation Group) 2,500 $75.95 $189,875.00 24,011 -7.25% view
S 2010-10-27 2010-10-28 16:02:31.0 PARKER HANNIFIN CORP PH Sherrard Roger S officer (VP, Pres - Automation Group) 5,800 $75.94 $440,452.00 26,511 -7.27% view
S 2010-10-27 2010-10-28 16:02:31.0 PARKER HANNIFIN CORP PH Sherrard Roger S officer (VP, Pres - Automation Group) 279 $75.93 $21,184.50 32,311 -7.28% view
S 2010-10-27 2010-10-28 16:02:31.0 PARKER HANNIFIN CORP PH Sherrard Roger S officer (VP, Pres - Automation Group) 3,258 $75.92 $247,347.00 32,590 -7.30% view
S 2010-10-27 2010-10-28 16:02:31.0 PARKER HANNIFIN CORP PH Sherrard Roger S officer (VP, Pres - Automation Group) 100 $75.94 $7,594.00 35,848 -7.27% view
S 2010-10-27 2010-10-28 16:02:31.0 PARKER HANNIFIN CORP PH Sherrard Roger S officer (VP, Pres - Automation Group) 100 $75.96 $7,596.16 35,948 -7.24% view
S 2010-10-27 2010-10-28 15:59:05.0 PARKER HANNIFIN CORP PH Saulnier Charly officer (VP & Pres-Eur, Mid E, Afr Gr) 752 $74.93 $56,351.10 4,633 -8.71% view
S 2010-10-27 2010-10-28 15:59:05.0 PARKER HANNIFIN CORP PH Saulnier Charly officer (VP & Pres-Eur, Mid E, Afr Gr) 200 $74.93 $14,986.60 5,385 -8.71% view
S 2010-10-27 2010-10-28 15:59:05.0 PARKER HANNIFIN CORP PH Saulnier Charly officer (VP & Pres-Eur, Mid E, Afr Gr) 200 $74.92 $14,984.40 5,585 -8.73% view
S 2010-10-27 2010-10-28 15:59:05.0 PARKER HANNIFIN CORP PH Saulnier Charly officer (VP & Pres-Eur, Mid E, Afr Gr) 1,000 $74.92 $74,921.00 5,785 -8.73% view
S 2010-10-27 2010-10-28 15:59:05.0 PARKER HANNIFIN CORP PH Saulnier Charly officer (VP & Pres-Eur, Mid E, Afr Gr) 2,200 $74.91 $164,811.00 6,785 -8.74% view
S 2010-10-27 2010-10-28 15:59:05.0 PARKER HANNIFIN CORP PH Saulnier Charly officer (VP & Pres-Eur, Mid E, Afr Gr) 426 $74.91 $31,912.50 8,985 -8.74% view
S 2010-10-22 2010-10-25 15:43:10.0 PARKER HANNIFIN CORP PH ELINE WILLIAM G officer (VP- Chief Information Officer) 700 $75.74 $53,018.00 14,225 -7.43% view
S 2010-10-22 2010-10-25 15:43:10.0 PARKER HANNIFIN CORP PH ELINE WILLIAM G officer (VP- Chief Information Officer) 408 $75.73 $30,898.20 14,925 -7.45% view
S 2010-10-22 2010-10-25 15:43:10.0 PARKER HANNIFIN CORP PH ELINE WILLIAM G officer (VP- Chief Information Officer) 1,000 $75.73 $75,732.00 15,333 -7.44% view
S 2010-10-22 2010-10-25 15:43:10.0 PARKER HANNIFIN CORP PH ELINE WILLIAM G officer (VP- Chief Information Officer) 1,800 $75.74 $136,328.00 8,810 -7.44% view
S 2010-10-22 2010-10-25 15:43:10.0 PARKER HANNIFIN CORP PH ELINE WILLIAM G officer (VP- Chief Information Officer) 100 $75.75 $7,575.20 10,610 -7.42% view
S 2010-10-22 2010-10-25 15:43:10.0 PARKER HANNIFIN CORP PH ELINE WILLIAM G officer (VP- Chief Information Officer) 100 $75.73 $7,573.28 10,710 -7.44% view
S 2010-10-22 2010-10-25 15:43:10.0 PARKER HANNIFIN CORP PH ELINE WILLIAM G officer (VP- Chief Information Officer) 1,300 $75.73 $98,450.30 10,810 -7.45% view
S 2010-10-22 2010-10-25 15:43:10.0 PARKER HANNIFIN CORP PH ELINE WILLIAM G officer (VP- Chief Information Officer) 200 $75.76 $15,152.20 12,110 -7.40% view
S 2010-09-10 2010-09-13 13:41:18.0 PARKER HANNIFIN CORP PH Harty Linda S director 400 $65.55 $26,220.40 5,979 -8.59% view
S 2010-09-10 2010-09-13 13:41:18.0 PARKER HANNIFIN CORP PH Harty Linda S director 400 $65.55 $26,220.00 6,379 -8.59% view
S 2010-09-10 2010-09-13 13:41:18.0 PARKER HANNIFIN CORP PH Harty Linda S director 300 $65.54 $19,662.00 6,779 -8.61% view
S 2010-09-10 2010-09-13 13:41:18.0 PARKER HANNIFIN CORP PH Harty Linda S director 100 $65.53 $6,553.10 7,079 -8.62% view
S 2010-09-10 2010-09-13 13:41:18.0 PARKER HANNIFIN CORP PH Harty Linda S director 400 $65.53 $26,212.00 7,179 -8.62% view
S 2010-09-10 2010-09-13 13:41:18.0 PARKER HANNIFIN CORP PH Harty Linda S director 200 $65.52 $13,104.30 7,579 -8.64% view
S 2010-09-10 2010-09-13 13:41:18.0 PARKER HANNIFIN CORP PH Harty Linda S director 17 $65.52 $1,113.86 7,779 -8.64% view
S 2010-09-10 2010-09-13 13:41:18.0 PARKER HANNIFIN CORP PH Harty Linda S director 200 $65.52 $13,104.20 7,796 -8.64% view
S 2010-09-10 2010-09-13 13:41:18.0 PARKER HANNIFIN CORP PH Harty Linda S director 1,731 $65.52 $113,415.00 7,996 -8.64% view
S 2010-09-10 2010-09-13 13:41:18.0 PARKER HANNIFIN CORP PH Harty Linda S director 100 $65.51 $6,551.07 9,727 -8.65% view
S 2010-09-10 2010-09-13 13:41:18.0 PARKER HANNIFIN CORP PH Harty Linda S director 100 $65.51 $6,551.06 9,827 -8.65% view
S 2010-09-10 2010-09-13 13:41:18.0 PARKER HANNIFIN CORP PH Harty Linda S director 631 $65.51 $41,336.80 9,927 -8.66% view
S 2010-09-10 2010-09-13 13:41:18.0 PARKER HANNIFIN CORP PH Harty Linda S director 1,331 $65.50 $87,180.50 10,558 -8.67% view
S 2010-09-10 2010-09-13 13:41:18.0 PARKER HANNIFIN CORP PH Harty Linda S director 4,090 $65.49 $267,854.00 11,889 -8.69% view
S 2010-05-12 2010-05-24 15:54:38.0 PARKER HANNIFIN CORP PH KASHKOUSH MARWAN M officer (EVP-Sales/Marketing/Operations) 11 $69.18 $760.92 18,479 11.73% view
S 2010-05-12 2010-05-24 15:54:38.0 PARKER HANNIFIN CORP PH KASHKOUSH MARWAN M officer (EVP-Sales/Marketing/Operations) 1,165 $69.17 $80,577.20 18,490 11.72% view
S 2010-05-12 2010-05-24 15:54:38.0 PARKER HANNIFIN CORP PH KASHKOUSH MARWAN M officer (EVP-Sales/Marketing/Operations) 300 $69.17 $20,751.00 19,655 11.72% view
S 2010-05-12 2010-05-24 15:54:38.0 PARKER HANNIFIN CORP PH KASHKOUSH MARWAN M officer (EVP-Sales/Marketing/Operations) 600 $69.17 $41,504.40 19,955 11.73% view
S 2010-05-12 2010-05-24 15:54:38.0 PARKER HANNIFIN CORP PH KASHKOUSH MARWAN M officer (EVP-Sales/Marketing/Operations) 100 $69.18 $6,918.09 20,555 11.74% view
S 2010-05-12 2010-05-24 15:54:38.0 PARKER HANNIFIN CORP PH KASHKOUSH MARWAN M officer (EVP-Sales/Marketing/Operations) 100 $69.18 $6,918.40 20,655 11.74% view
S 2010-05-12 2010-05-24 15:54:38.0 PARKER HANNIFIN CORP PH KASHKOUSH MARWAN M officer (EVP-Sales/Marketing/Operations) 111 $69.18 $7,679.31 20,755 11.74% view
S 2010-05-12 2010-05-24 15:54:38.0 PARKER HANNIFIN CORP PH KASHKOUSH MARWAN M officer (EVP-Sales/Marketing/Operations) 600 $69.22 $41,532.60 20,866 11.79% view
S 2010-05-12 2010-05-24 15:54:38.0 PARKER HANNIFIN CORP PH KASHKOUSH MARWAN M officer (EVP-Sales/Marketing/Operations) 200 $69.20 $13,840.40 21,466 11.77% view
S 2010-05-12 2010-05-24 15:54:38.0 PARKER HANNIFIN CORP PH KASHKOUSH MARWAN M officer (EVP-Sales/Marketing/Operations) 300 $69.19 $20,757.90 21,666 11.75% view
S 2010-05-12 2010-05-24 15:54:38.0 PARKER HANNIFIN CORP PH KASHKOUSH MARWAN M officer (EVP-Sales/Marketing/Operations) 913 $69.20 $63,180.50 21,966 11.76% view
S 2010-04-29 2010-04-29 17:06:16.0 PARKER HANNIFIN CORP PH Greco John R officer (VP, Pres - Instrumentation Grp) 2,400 $71.01 $170,426.00 4,885 13.45% view
S 2010-04-29 2010-04-29 17:06:15.0 PARKER HANNIFIN CORP PH Greco John R officer (VP, Pres - Instrumentation Grp) 1,127 $71.02 $80,035.00 7,285 13.46% view
S 2010-04-29 2010-04-29 17:04:29.0 PARKER HANNIFIN CORP PH ELINE WILLIAM G officer (VP- Chief Information Officer) 1,000 $71.10 $71,100.00 12,310 13.56% view
S 2010-04-29 2010-04-29 17:04:29.0 PARKER HANNIFIN CORP PH ELINE WILLIAM G officer (VP- Chief Information Officer) 1,500 $71.05 $106,575.00 13,310 13.50% view
S 2010-04-29 2010-04-29 17:04:29.0 PARKER HANNIFIN CORP PH ELINE WILLIAM G officer (VP- Chief Information Officer) 18 $71.07 $1,279.29 14,810 13.52% view
S 2010-04-29 2010-04-29 17:04:29.0 PARKER HANNIFIN CORP PH ELINE WILLIAM G officer (VP- Chief Information Officer) 900 $71.07 $63,963.00 14,828 13.52% view
S 2010-04-29 2010-04-29 17:04:29.0 PARKER HANNIFIN CORP PH ELINE WILLIAM G officer (VP- Chief Information Officer) 82 $71.07 $5,827.41 15,728 13.52% view
S 2010-04-29 2010-04-29 17:03:53.0 PARKER HANNIFIN CORP PH PISTELL TIMOTHY K officer (EVP- Finance Admin/CFO) 500 $71.01 $35,506.00 91,411 13.45% view
S 2010-04-29 2010-04-29 17:03:53.0 PARKER HANNIFIN CORP PH PISTELL TIMOTHY K officer (EVP- Finance Admin/CFO) 297 $71.01 $21,090.30 91,911 13.45% view
S 2010-04-29 2010-04-29 17:03:53.0 PARKER HANNIFIN CORP PH PISTELL TIMOTHY K officer (EVP- Finance Admin/CFO) 1,300 $71.00 $92,302.60 92,208 13.44% view
S 2010-04-29 2010-04-29 17:03:53.0 PARKER HANNIFIN CORP PH PISTELL TIMOTHY K officer (EVP- Finance Admin/CFO) 1,358 $71.00 $96,419.40 93,508 13.44% view
S 2010-04-29 2010-04-29 17:03:53.0 PARKER HANNIFIN CORP PH PISTELL TIMOTHY K officer (EVP- Finance Admin/CFO) 400 $70.99 $28,396.00 94,866 13.42% view
S 2010-04-29 2010-04-29 17:03:53.0 PARKER HANNIFIN CORP PH PISTELL TIMOTHY K officer (EVP- Finance Admin/CFO) 300 $70.98 $21,294.60 95,266 13.41% view
* An * after P or S in the Buy/Sell column means the transaction was filed by the insider as open market, but it was marked as private transaction by insidercow's proprietary method
Show all 1158 records.
Enter Another Stock Symbol: